Time,TemperatureF,DewpointF,PressureIn,WindDirection,WindDirectionDegrees,WindSpeedMPH,WindSpeedGustMPH,Humidity,HourlyPrecipIn,Conditions,Clouds,dailyrainin,SoftwareType,DateUTC
2013-01-11 00:02:00,75.4,67.0,30.27,ESE,118,19.2,19.2,78,0.06,,,2.77,TxWx,2013-01-11 05:02:00,
2013-01-11 00:03:00,75.5,67.0,30.27,East,96,20.4,20.4,77,0.06,,,2.77,TxWx,2013-01-11 05:03:00,
2013-01-11 00:04:00,75.7,68.0,30.27,East,96,16.1,16.1,77,0.06,,,2.77,TxWx,2013-01-11 05:04:00,
2013-01-11 00:08:00,75.7,68.0,30.27,East,96,16.1,16.1,77,0.12,,,0.00,TxWx,2013-01-11 05:08:00,
2013-01-11 00:09:00,75.7,68.0,30.27,East,96,13.6,14.2,77,0.12,,,0.00,TxWx,2013-01-11 05:09:00,
2013-01-11 00:10:00,75.8,68.0,30.27,ESE,118,13.0,14.2,77,0.12,,,0.00,TxWx,2013-01-11 05:10:00,
2013-01-11 00:11:00,75.8,68.0,30.27,East,96,13.6,14.2,77,0.12,,,0.00,TxWx,2013-01-11 05:11:00,
2013-01-11 00:15:00,75.7,68.0,30.26,ESE,118,18.6,18.6,77,0.00,,,0.00,TxWx,2013-01-11 05:15:00,
2013-01-11 00:17:00,75.6,68.0,30.26,ESE,118,15.5,16.7,77,0.00,,,0.00,TxWx,2013-01-11 05:17:00,
2013-01-11 00:20:00,75.6,68.0,30.26,ESE,118,18.6,18.6,78,0.00,,,0.00,TxWx,2013-01-11 05:20:00,
2013-01-11 00:22:00,75.2,67.0,30.27,SE,141,17.9,17.9,77,0.00,,,0.00,TxWx,2013-01-11 05:22:00,
2013-01-11 00:23:00,75.6,68.0,30.27,ESE,118,14.2,14.2,77,0.00,,,0.01,TxWx,2013-01-11 05:23:00,
2013-01-11 00:27:00,75.6,68.0,30.27,ESE,118,14.2,16.7,78,0.06,,,0.02,TxWx,2013-01-11 05:27:00,
2013-01-11 00:28:00,75.4,67.0,30.27,East,96,18.6,18.6,77,0.06,,,0.02,TxWx,2013-01-11 05:28:00,
2013-01-11 00:32:00,75.5,68.0,30.27,ESE,118,16.1,16.7,76,0.06,,,0.02,TxWx,2013-01-11 05:32:00,
2013-01-11 00:34:00,76.0,68.0,30.27,East,96,15.5,15.5,77,0.06,,,0.02,TxWx,2013-01-11 05:34:00,
2013-01-11 00:37:00,75.8,68.0,30.27,ESE,118,14.9,16.7,77,0.06,,,0.02,TxWx,2013-01-11 05:37:00,
2013-01-11 00:38:00,75.7,68.0,30.26,ESE,118,16.1,16.7,78,0.06,,,0.02,TxWx,2013-01-11 05:38:00,
2013-01-11 00:41:00,75.5,69.0,30.26,East,96,17.3,17.3,78,0.06,,,0.03,TxWx,2013-01-11 05:41:00,
2013-01-11 00:42:00,75.3,67.0,30.26,East,96,16.1,17.3,77,0.06,,,0.03,TxWx,2013-01-11 05:42:00,
2013-01-11 00:44:00,75.5,68.0,30.26,East,96,13.0,16.1,78,0.12,,,0.04,TxWx,2013-01-11 05:44:00,
2013-01-11 00:47:00,75.6,68.0,30.26,East,96,16.7,16.7,78,0.12,,,0.04,TxWx,2013-01-11 05:47:00,
2013-01-11 00:49:00,75.5,68.0,30.26,East,96,14.2,14.9,77,0.12,,,0.04,TxWx,2013-01-11 05:49:00,
2013-01-11 00:50:00,75.6,68.0,30.26,ESE,118,14.2,14.2,78,0.12,,,0.05,TxWx,2013-01-11 05:50:00,
2013-01-11 00:52:00,75.6,68.0,30.26,East,96,15.5,16.1,77,0.12,,,0.05,TxWx,2013-01-11 05:52:00,
2013-01-11 00:54:00,75.8,69.0,30.26,East,96,13.0,14.9,78,0.06,,,0.05,TxWx,2013-01-11 05:54:00,
2013-01-11 00:55:00,75.5,69.0,30.26,East,96,17.9,17.9,78,0.06,,,0.05,TxWx,2013-01-11 05:55:00,
2013-01-11 00:57:00,75.4,67.0,30.26,East,96,17.9,17.9,78,0.06,,,0.06,TxWx,2013-01-11 05:57:00,
2013-01-11 00:59:00,75.4,68.0,30.26,ESE,118,13.0,13.6,79,0.06,,,0.06,TxWx,2013-01-11 05:59:00,
2013-01-11 01:01:00,75.4,67.0,30.26,East,96,11.8,11.8,77,0.06,,,0.06,TxWx,2013-01-11 06:01:00,
2013-01-11 01:02:00,75.4,67.0,30.26,East,96,12.4,13.6,77,0.06,,,0.06,TxWx,2013-01-11 06:02:00,
2013-01-11 01:05:00,75.6,67.0,30.26,ESE,118,12.4,13.0,75,0.06,,,0.06,TxWx,2013-01-11 06:05:00,
2013-01-11 01:07:00,75.6,67.0,30.26,ESE,118,9.9,11.1,75,0.06,,,0.06,TxWx,2013-01-11 06:07:00,
2013-01-11 01:12:00,75.5,67.0,30.26,ESE,118,13.6,13.6,75,0.06,,,0.06,TxWx,2013-01-11 06:12:00,
2013-01-11 01:13:00,75.5,66.0,30.26,ESE,118,13.6,13.6,74,0.06,,,0.06,TxWx,2013-01-11 06:13:00,
2013-01-11 01:18:00,76.0,67.0,30.26,ESE,118,11.8,13.6,74,0.00,,,0.06,TxWx,2013-01-11 06:18:00,
2013-01-11 01:19:00,76.1,67.0,30.26,ESE,118,13.6,14.9,74,0.00,,,0.06,TxWx,2013-01-11 06:19:00,
2013-01-11 01:21:00,76.2,68.0,30.26,ESE,118,12.4,14.2,76,0.00,,,0.06,TxWx,2013-01-11 06:21:00,
2013-01-11 01:24:00,75.9,68.0,30.26,ESE,118,13.0,14.2,77,0.00,,,0.06,TxWx,2013-01-11 06:24:00,
2013-01-11 01:25:00,75.6,68.0,30.26,East,96,14.2,14.2,77,0.00,,,0.06,TxWx,2013-01-11 06:25:00,
2013-01-11 01:26:00,75.8,68.0,30.26,ESE,118,14.9,15.5,77,0.00,,,0.06,TxWx,2013-01-11 06:26:00,
2013-01-11 01:29:00,75.7,69.0,30.26,ESE,118,13.6,15.5,78,0.00,,,0.07,TxWx,2013-01-11 06:29:00,
2013-01-11 01:30:00,75.7,69.0,30.26,ESE,118,15.5,17.3,78,0.00,,,0.07,TxWx,2013-01-11 06:30:00,
2013-01-11 01:31:00,75.4,67.0,30.26,East,96,17.9,17.9,78,0.00,,,0.09,TxWx,2013-01-11 06:31:00,
2013-01-11 01:32:00,75.6,69.0,30.26,ESE,118,13.0,16.7,78,0.00,,,0.09,TxWx,2013-01-11 06:32:00,
2013-01-11 01:35:00,75.5,69.0,30.26,ESE,118,13.6,16.7,79,0.54,,,0.15,TxWx,2013-01-11 06:35:00,
2013-01-11 01:36:00,75.4,68.0,30.26,ESE,118,16.7,16.7,79,0.54,,,0.15,TxWx,2013-01-11 06:36:00,
2013-01-11 01:38:00,75.5,69.0,30.26,East,96,15.5,15.5,79,0.54,,,0.15,TxWx,2013-01-11 06:38:00,
2013-01-11 01:42:00,75.1,68.0,30.26,East,96,16.1,16.1,78,0.54,,,0.15,TxWx,2013-01-11 06:42:00,
2013-01-11 01:43:00,75.3,67.0,30.26,East,96,14.2,14.9,78,0.54,,,0.15,TxWx,2013-01-11 06:43:00,
2013-01-11 01:47:00,75.4,67.0,30.25,East,96,20.4,20.4,77,0.00,,,0.21,TxWx,2013-01-11 06:47:00,
2013-01-11 01:48:00,75.7,68.0,30.25,ESE,118,14.9,19.2,78,0.00,,,0.21,TxWx,2013-01-11 06:48:00,
2013-01-11 01:49:00,75.5,68.0,30.25,ESE,118,18.6,18.6,78,0.00,,,0.21,TxWx,2013-01-11 06:49:00,
2013-01-11 01:51:00,75.7,69.0,30.25,East,96,16.1,17.3,78,0.00,,,0.21,TxWx,2013-01-11 06:51:00,
2013-01-11 01:53:00,75.7,69.0,30.25,ENE,73,19.2,21.0,79,0.00,,,0.21,TxWx,2013-01-11 06:53:00,
2013-01-11 01:56:00,75.7,69.0,30.26,ESE,118,17.3,17.3,79,0.36,,,0.24,TxWx,2013-01-11 06:56:00,
2013-01-11 01:59:00,75.3,68.0,30.25,East,96,17.9,18.6,79,0.36,,,0.26,TxWx,2013-01-11 06:59:00,
2013-01-11 02:01:00,75.8,69.0,30.25,ESE,118,14.9,14.9,80,0.36,,,0.27,TxWx,2013-01-11 07:01:00,
2013-01-11 02:06:00,75.7,69.0,30.25,ESE,118,13.0,15.5,80,0.36,,,0.27,TxWx,2013-01-11 07:06:00,
2013-01-11 02:07:00,75.3,68.0,30.25,ESE,118,16.1,16.1,80,0.36,,,0.27,TxWx,2013-01-11 07:07:00,
2013-01-11 02:08:00,75.1,68.0,30.25,ESE,118,13.0,14.9,79,0.36,,,0.27,TxWx,2013-01-11 07:08:00,
2013-01-11 02:11:00,75.8,69.0,30.25,ESE,118,14.9,15.5,79,0.36,,,0.27,TxWx,2013-01-11 07:11:00,
2013-01-11 02:12:00,75.8,69.0,30.25,East,96,15.5,15.5,79,0.36,,,0.27,TxWx,2013-01-11 07:12:00,
2013-01-11 02:13:00,75.3,67.0,30.25,ESE,118,16.7,16.7,78,0.36,,,0.27,TxWx,2013-01-11 07:13:00,
2013-01-11 02:16:00,75.5,67.0,30.25,ESE,118,15.5,15.5,77,0.00,,,0.27,TxWx,2013-01-11 07:16:00,
2013-01-11 02:17:00,75.9,68.0,30.25,ESE,118,11.8,14.2,77,0.00,,,0.27,TxWx,2013-01-11 07:17:00,
2013-01-11 02:18:00,75.5,68.0,30.25,ESE,118,15.5,16.7,76,0.00,,,0.27,TxWx,2013-01-11 07:18:00,
2013-01-11 02:21:00,75.8,68.0,30.25,ESE,118,13.0,13.6,76,0.00,,,0.27,TxWx,2013-01-11 07:21:00,
2013-01-11 02:23:00,75.9,68.0,30.24,ESE,118,15.5,16.7,77,0.00,,,0.27,TxWx,2013-01-11 07:23:00,
2013-01-11 02:24:00,76.0,68.0,30.25,ESE,118,13.6,14.2,77,0.00,,,0.27,TxWx,2013-01-11 07:24:00,
2013-01-11 02:27:00,75.8,68.0,30.24,East,96,14.2,16.7,77,0.00,,,0.27,TxWx,2013-01-11 07:27:00,
2013-01-11 02:29:00,75.5,68.0,30.24,ESE,118,14.2,16.7,76,0.00,,,0.27,TxWx,2013-01-11 07:29:00,
2013-01-11 02:30:00,75.7,68.0,30.24,East,96,15.5,15.5,77,0.00,,,0.27,TxWx,2013-01-11 07:30:00,
2013-01-11 02:31:00,75.7,68.0,30.24,ESE,118,15.5,15.5,76,0.00,,,0.27,TxWx,2013-01-11 07:31:00,
2013-01-11 02:32:00,75.6,68.0,30.24,East,96,14.9,14.9,77,0.00,,,0.27,TxWx,2013-01-11 07:32:00,
2013-01-11 02:34:00,75.7,68.0,30.24,ESE,118,14.9,16.1,76,0.00,,,0.27,TxWx,2013-01-11 07:34:00,
2013-01-11 02:35:00,75.9,68.0,30.24,East,96,14.2,16.1,77,0.00,,,0.27,TxWx,2013-01-11 07:35:00,
2013-01-11 02:37:00,75.5,68.0,30.24,ESE,118,16.1,17.3,76,0.00,,,0.27,TxWx,2013-01-11 07:37:00,
2013-01-11 02:40:00,75.7,68.0,30.23,East,96,20.4,21.0,76,0.00,,,0.27,TxWx,2013-01-11 07:40:00,
2013-01-11 02:43:00,75.8,68.0,30.23,East,96,17.3,17.3,77,0.00,,,0.27,TxWx,2013-01-11 07:43:00,
2013-01-11 02:46:00,75.7,68.0,30.23,ESE,118,16.7,18.6,76,0.00,,,0.27,TxWx,2013-01-11 07:46:00,
2013-01-11 02:48:00,75.8,68.0,30.23,East,96,15.5,16.1,77,0.00,,,0.27,TxWx,2013-01-11 07:48:00,
2013-01-11 02:50:00,75.4,67.0,30.23,ESE,118,19.2,19.2,76,0.00,,,0.27,TxWx,2013-01-11 07:50:00,
2013-01-11 02:53:00,75.7,68.0,30.23,ESE,118,15.5,15.5,76,0.00,,,0.27,TxWx,2013-01-11 07:53:00,
2013-01-11 02:54:00,75.8,68.0,30.23,ESE,118,15.5,16.7,76,0.00,,,0.27,TxWx,2013-01-11 07:54:00,
2013-01-11 02:55:00,75.9,68.0,30.23,East,96,17.9,18.6,76,0.00,,,0.27,TxWx,2013-01-11 07:55:00,
2013-01-11 03:00:00,75.4,67.0,30.22,ESE,118,18.6,18.6,76,0.00,,,0.28,TxWx,2013-01-11 08:00:00,
2013-01-11 03:01:00,75.5,68.0,30.22,East,96,17.3,18.6,76,0.00,,,0.28,TxWx,2013-01-11 08:01:00,
2013-01-11 03:04:00,75.3,67.0,30.22,ESE,118,18.6,19.2,76,0.00,,,0.29,TxWx,2013-01-11 08:04:00,
2013-01-11 03:06:00,75.5,67.0,30.22,ESE,118,12.4,16.1,75,0.12,,,0.29,TxWx,2013-01-11 08:06:00,
2013-01-11 03:08:00,75.4,67.0,30.22,East,96,16.1,16.1,76,0.12,,,0.29,TxWx,2013-01-11 08:08:00,
2013-01-11 03:09:00,75.5,67.0,30.22,ESE,118,17.9,19.2,75,0.12,,,0.29,TxWx,2013-01-11 08:09:00,
2013-01-11 03:11:00,75.3,67.0,30.22,East,96,15.5,18.6,76,0.12,,,0.29,TxWx,2013-01-11 08:11:00,
2013-01-11 03:12:00,75.5,68.0,30.22,ESE,118,14.9,16.1,76,0.12,,,0.29,TxWx,2013-01-11 08:12:00,
2013-01-11 03:14:00,75.7,68.0,30.22,East,96,14.2,15.5,77,0.00,,,0.31,TxWx,2013-01-11 08:14:00,
2013-01-11 03:15:00,75.4,67.0,30.22,ESE,118,16.1,17.3,77,0.00,,,0.31,TxWx,2013-01-11 08:15:00,
2013-01-11 03:17:00,75.2,67.0,30.22,ESE,118,19.2,19.2,77,0.00,,,0.31,TxWx,2013-01-11 08:17:00,
2013-01-11 03:18:00,75.3,67.0,30.22,ESE,118,16.1,16.1,76,0.00,,,0.31,TxWx,2013-01-11 08:18:00,
2013-01-11 03:21:00,75.7,68.0,30.21,ESE,118,16.1,16.1,76,0.00,,,0.31,TxWx,2013-01-11 08:21:00,
2013-01-11 03:22:00,75.6,68.0,30.22,ESE,118,13.0,14.2,77,0.00,,,0.31,TxWx,2013-01-11 08:22:00,
2013-01-11 03:23:00,75.3,67.0,30.21,East,96,15.5,16.1,76,0.00,,,0.31,TxWx,2013-01-11 08:23:00,
2013-01-11 03:26:00,75.5,68.0,30.21,ESE,118,14.2,14.2,77,0.12,,,0.31,TxWx,2013-01-11 08:26:00,
2013-01-11 03:28:00,75.3,67.0,30.21,ESE,118,16.1,16.1,77,0.12,,,0.31,TxWx,2013-01-11 08:28:00,
2013-01-11 03:29:00,75.3,67.0,30.21,ESE,118,18.6,18.6,77,0.12,,,0.31,TxWx,2013-01-11 08:29:00,
2013-01-11 03:30:00,75.4,67.0,30.21,ESE,118,16.7,16.7,78,0.12,,,0.31,TxWx,2013-01-11 08:30:00,
2013-01-11 03:32:00,74.9,67.0,30.21,SE,141,14.2,16.7,76,0.12,,,0.31,TxWx,2013-01-11 08:32:00,
2013-01-11 03:35:00,75.5,68.0,30.21,East,96,13.0,13.0,77,0.00,,,0.31,TxWx,2013-01-11 08:35:00,
2013-01-11 03:36:00,75.5,68.0,30.21,ESE,118,18.6,18.6,77,0.00,,,0.31,TxWx,2013-01-11 08:36:00,
2013-01-11 03:40:00,75.8,68.0,30.20,East,96,14.2,14.2,78,0.00,,,0.31,TxWx,2013-01-11 08:40:00,
2013-01-11 03:41:00,75.5,67.0,30.20,ESE,118,19.2,19.2,77,0.00,,,0.31,TxWx,2013-01-11 08:41:00,
2013-01-11 03:42:00,75.5,67.0,30.20,SE,141,14.9,16.7,77,0.00,,,0.31,TxWx,2013-01-11 08:42:00,
2013-01-11 03:46:00,75.5,68.0,30.20,East,96,13.0,14.2,76,0.00,,,0.31,TxWx,2013-01-11 08:46:00,
2013-01-11 03:47:00,75.4,67.0,30.20,East,96,18.6,19.2,76,0.00,,,0.31,TxWx,2013-01-11 08:47:00,
2013-01-11 03:50:00,75.4,67.0,30.20,ESE,118,13.0,13.6,76,0.00,,,0.31,TxWx,2013-01-11 08:50:00,
2013-01-11 03:51:00,75.6,68.0,30.20,East,96,11.8,12.4,77,0.00,,,0.31,TxWx,2013-01-11 08:51:00,
2013-01-11 03:52:00,75.5,67.0,30.20,ESE,118,14.2,14.2,77,0.00,,,0.31,TxWx,2013-01-11 08:52:00,
2013-01-11 03:55:00,75.6,68.0,30.20,ESE,118,15.5,16.1,77,0.00,,,0.31,TxWx,2013-01-11 08:55:00,
2013-01-11 03:57:00,75.9,68.0,30.20,East,96,13.0,13.0,77,0.00,,,0.31,TxWx,2013-01-11 08:57:00,
2013-01-11 03:58:00,75.9,68.0,30.20,East,96,13.6,13.6,78,0.00,,,0.31,TxWx,2013-01-11 08:58:00,
2013-01-11 04:00:00,75.2,67.0,30.20,East,96,13.6,14.9,77,0.00,,,0.31,TxWx,2013-01-11 09:00:00,
2013-01-11 04:01:00,75.6,68.0,30.20,SE,141,11.8,13.6,77,0.00,,,0.31,TxWx,2013-01-11 09:01:00,
2013-01-11 04:03:00,75.4,67.0,30.20,ESE,118,17.9,17.9,77,0.00,,,0.31,TxWx,2013-01-11 09:03:00,
2013-01-11 04:04:00,75.8,69.0,30.20,SE,141,14.9,14.9,78,0.00,,,0.31,TxWx,2013-01-11 09:04:00,
2013-01-11 04:05:00,75.2,67.0,30.20,ESE,118,16.7,17.9,77,0.00,,,0.31,TxWx,2013-01-11 09:05:00,
2013-01-11 04:06:00,75.6,68.0,30.20,ESE,118,14.2,14.2,78,0.00,,,0.31,TxWx,2013-01-11 09:06:00,
2013-01-11 04:08:00,75.4,68.0,30.20,ESE,118,13.0,16.1,78,0.00,,,0.31,TxWx,2013-01-11 09:08:00,
2013-01-11 04:11:00,75.5,68.0,30.20,ESE,118,14.2,16.1,79,0.00,,,0.31,TxWx,2013-01-11 09:11:00,
2013-01-11 04:12:00,75.4,68.0,30.20,ESE,118,17.3,17.3,79,0.00,,,0.31,TxWx,2013-01-11 09:12:00,
2013-01-11 04:14:00,75.1,68.0,30.20,East,96,16.1,16.1,79,0.00,,,0.31,TxWx,2013-01-11 09:14:00,
2013-01-11 04:15:00,75.3,68.0,30.20,ESE,118,16.7,16.7,80,0.00,,,0.31,TxWx,2013-01-11 09:15:00,
2013-01-11 04:18:00,75.5,68.0,30.20,ESE,118,14.9,14.9,80,0.00,,,0.31,TxWx,2013-01-11 09:18:00,
2013-01-11 04:19:00,75.6,69.0,30.20,ESE,118,14.2,14.2,80,0.00,,,0.31,TxWx,2013-01-11 09:19:00,
2013-01-11 04:20:00,75.0,68.0,30.20,ESE,118,16.7,16.7,79,0.00,,,0.31,TxWx,2013-01-11 09:20:00,
2013-01-11 04:23:00,75.5,68.0,30.20,ESE,118,14.9,16.1,79,0.00,,,0.31,TxWx,2013-01-11 09:23:00,
2013-01-11 04:24:00,75.3,68.0,30.19,ESE,118,14.2,14.2,79,0.00,,,0.31,TxWx,2013-01-11 09:24:00,
2013-01-11 04:26:00,75.5,69.0,30.19,ESE,118,13.0,14.2,79,0.00,,,0.31,TxWx,2013-01-11 09:26:00,
2013-01-11 04:29:00,75.4,68.0,30.20,ESE,118,15.5,15.5,79,0.00,,,0.31,TxWx,2013-01-11 09:29:00,
2013-01-11 04:33:00,75.5,68.0,30.19,SE,141,15.5,15.5,78,0.00,,,0.31,TxWx,2013-01-11 09:33:00,
2013-01-11 04:34:00,75.5,68.0,30.19,ESE,118,14.2,14.9,79,0.00,,,0.31,TxWx,2013-01-11 09:34:00,
2013-01-11 04:35:00,75.7,69.0,30.20,ESE,118,14.2,14.2,79,0.00,,,0.31,TxWx,2013-01-11 09:35:00,
2013-01-11 04:39:00,75.5,69.0,30.19,ESE,118,13.6,13.6,78,0.00,,,0.31,TxWx,2013-01-11 09:39:00,
2013-01-11 04:40:00,75.6,69.0,30.19,ESE,118,12.4,13.0,79,0.00,,,0.31,TxWx,2013-01-11 09:40:00,
2013-01-11 04:44:00,75.7,69.0,30.19,SE,141,13.6,14.2,79,0.00,,,0.31,TxWx,2013-01-11 09:44:00,
2013-01-11 04:46:00,75.4,68.0,30.19,SE,141,15.5,16.7,79,0.00,,,0.31,TxWx,2013-01-11 09:46:00,
2013-01-11 04:47:00,75.3,68.0,30.19,SE,141,16.1,16.1,79,0.00,,,0.31,TxWx,2013-01-11 09:47:00,
2013-01-11 04:50:00,75.5,69.0,30.19,ESE,118,12.4,14.2,79,0.00,,,0.31,TxWx,2013-01-11 09:50:00,
2013-01-11 04:52:00,75.3,68.0,30.19,East,96,16.1,16.1,79,0.00,,,0.31,TxWx,2013-01-11 09:52:00,
2013-01-11 04:53:00,75.4,68.0,30.19,SE,141,16.7,16.7,79,0.00,,,0.31,TxWx,2013-01-11 09:53:00,
2013-01-11 04:55:00,75.3,68.0,30.19,ESE,118,15.5,17.3,79,0.00,,,0.31,TxWx,2013-01-11 09:55:00,
2013-01-11 04:59:00,75.5,68.0,30.19,ESE,118,14.2,16.1,79,0.00,,,0.31,TxWx,2013-01-11 09:59:00,
2013-01-11 05:00:00,75.5,69.0,30.20,East,96,13.6,15.5,79,0.00,,,0.31,TxWx,2013-01-11 10:00:00,
2013-01-11 05:01:00,75.4,68.0,30.20,ESE,118,13.0,13.0,79,0.00,,,0.31,TxWx,2013-01-11 10:01:00,
2013-01-11 05:05:00,75.5,68.0,30.19,ESE,118,13.6,14.2,79,0.00,,,0.31,TxWx,2013-01-11 10:05:00,
2013-01-11 05:06:00,75.5,68.0,30.19,ESE,118,12.4,14.2,79,0.00,,,0.31,TxWx,2013-01-11 10:06:00,
2013-01-11 05:07:00,75.3,68.0,30.19,ESE,118,16.1,16.1,79,0.00,,,0.31,TxWx,2013-01-11 10:07:00,
2013-01-11 05:11:00,75.6,69.0,30.19,ESE,118,13.0,13.0,80,0.00,,,0.31,TxWx,2013-01-11 10:11:00,
2013-01-11 05:12:00,75.5,69.0,30.19,East,96,14.2,14.2,80,0.00,,,0.31,TxWx,2013-01-11 10:12:00,
2013-01-11 05:13:00,75.2,68.0,30.20,ESE,118,14.2,14.2,79,0.00,,,0.31,TxWx,2013-01-11 10:13:00,
2013-01-11 05:16:00,75.5,68.0,30.19,ESE,118,13.0,13.6,79,0.00,,,0.31,TxWx,2013-01-11 10:16:00,
2013-01-11 05:18:00,75.4,68.0,30.20,East,96,13.6,14.2,79,0.00,,,0.31,TxWx,2013-01-11 10:18:00,
2013-01-11 05:21:00,75.8,69.0,30.19,ESE,118,13.6,14.9,80,0.00,,,0.31,TxWx,2013-01-11 10:21:00,
2013-01-11 05:23:00,75.4,68.0,30.19,East,96,16.7,16.7,80,0.00,,,0.31,TxWx,2013-01-11 10:23:00,
2013-01-11 05:26:00,75.3,68.0,30.19,ESE,118,17.9,17.9,79,0.00,,,0.31,TxWx,2013-01-11 10:26:00,
2013-01-11 05:29:00,75.5,69.0,30.19,East,96,15.5,16.1,80,0.00,,,0.31,TxWx,2013-01-11 10:29:00,
2013-01-11 05:30:00,75.3,68.0,30.19,ESE,118,16.7,17.9,79,0.00,,,0.31,TxWx,2013-01-11 10:30:00,
2013-01-11 05:32:00,74.9,68.0,30.20,SE,141,16.7,16.7,78,0.00,,,0.31,TxWx,2013-01-11 10:32:00,
2013-01-11 05:35:00,75.0,67.0,30.20,ESE,118,16.1,16.1,77,0.00,,,0.31,TxWx,2013-01-11 10:35:00,
2013-01-11 05:37:00,75.0,67.0,30.20,ESE,118,16.1,16.7,77,0.00,,,0.31,TxWx,2013-01-11 10:37:00,
2013-01-11 05:38:00,75.0,67.0,30.20,SE,141,14.9,15.5,77,0.00,,,0.31,TxWx,2013-01-11 10:38:00,
2013-01-11 05:40:00,75.4,67.0,30.20,ESE,118,16.7,18.6,78,0.00,,,0.31,TxWx,2013-01-11 10:40:00,
2013-01-11 05:42:00,75.0,67.0,30.20,SE,141,15.5,16.1,77,0.00,,,0.31,TxWx,2013-01-11 10:42:00,
2013-01-11 05:43:00,75.3,68.0,30.20,ESE,118,13.0,15.5,78,0.00,,,0.31,TxWx,2013-01-11 10:43:00,
2013-01-11 05:45:00,75.4,68.0,30.20,SE,141,13.0,13.6,79,0.00,,,0.31,TxWx,2013-01-11 10:45:00,
2013-01-11 05:48:00,75.1,68.0,30.19,East,96,16.7,16.7,79,0.00,,,0.31,TxWx,2013-01-11 10:48:00,
2013-01-11 05:51:00,75.4,68.0,30.20,ESE,118,14.9,14.9,80,0.00,,,0.31,TxWx,2013-01-11 10:51:00,
2013-01-11 05:52:00,75.5,69.0,30.20,ESE,118,14.9,14.9,80,0.00,,,0.31,TxWx,2013-01-11 10:52:00,
2013-01-11 05:54:00,75.4,68.0,30.20,SE,141,15.5,15.5,80,0.00,,,0.31,TxWx,2013-01-11 10:54:00,
2013-01-11 05:57:00,75.4,68.0,30.20,ESE,118,13.0,14.9,80,0.00,,,0.31,TxWx,2013-01-11 10:57:00,
2013-01-11 06:00:00,75.5,68.0,30.20,SE,141,14.9,14.9,80,0.00,,,0.31,TxWx,2013-01-11 11:00:00,
2013-01-11 06:01:00,75.6,69.0,30.20,SE,141,14.2,14.2,80,0.00,,,0.31,TxWx,2013-01-11 11:01:00,
2013-01-11 06:03:00,75.2,68.0,30.20,ESE,118,14.2,14.2,80,0.00,,,0.31,TxWx,2013-01-11 11:03:00,
2013-01-11 06:05:00,75.1,68.0,30.20,ESE,118,16.1,17.3,80,0.00,,,0.31,TxWx,2013-01-11 11:05:00,
2013-01-11 06:07:00,75.3,68.0,30.20,East,96,16.1,16.1,80,0.00,,,0.31,TxWx,2013-01-11 11:07:00,
2013-01-11 06:10:00,75.1,68.0,30.20,East,96,13.6,13.6,80,0.00,,,0.31,TxWx,2013-01-11 11:10:00,
2013-01-11 06:12:00,75.4,69.0,30.20,ESE,118,11.8,13.0,81,0.00,,,0.31,TxWx,2013-01-11 11:12:00,
2013-01-11 06:13:00,75.3,69.0,30.20,ESE,118,11.8,13.0,81,0.00,,,0.31,TxWx,2013-01-11 11:13:00,
2013-01-11 06:14:00,75.2,69.0,30.20,SE,141,13.6,13.6,81,0.00,,,0.31,TxWx,2013-01-11 11:14:00,
2013-01-11 06:15:00,75.2,69.0,30.20,East,96,12.4,15.5,81,0.00,,,0.31,TxWx,2013-01-11 11:15:00,
2013-01-11 06:19:00,74.6,68.0,30.19,SE,141,14.9,14.9,78,0.00,,,0.31,TxWx,2013-01-11 11:19:00,
2013-01-11 06:21:00,75.3,67.0,30.20,SE,141,14.9,15.5,78,0.00,,,0.31,TxWx,2013-01-11 11:21:00,
2013-01-11 06:22:00,75.3,67.0,30.20,SE,141,13.0,13.0,77,0.00,,,0.31,TxWx,2013-01-11 11:22:00,
2013-01-11 06:26:00,75.5,67.0,30.20,ESE,118,12.4,13.6,76,0.00,,,0.31,TxWx,2013-01-11 11:26:00,
2013-01-11 06:27:00,75.5,67.0,30.20,SE,141,13.0,13.0,76,0.00,,,0.31,TxWx,2013-01-11 11:27:00,
2013-01-11 06:31:00,75.6,68.0,30.20,SE,141,11.1,11.1,76,0.00,,,0.31,TxWx,2013-01-11 11:31:00,
2013-01-11 06:32:00,75.6,68.0,30.20,SE,141,11.1,11.8,76,0.00,,,0.31,TxWx,2013-01-11 11:32:00,
2013-01-11 06:33:00,75.5,67.0,30.21,SE,141,12.4,12.4,76,0.00,,,0.31,TxWx,2013-01-11 11:33:00,
2013-01-11 06:34:00,75.7,68.0,30.21,SE,141,9.3,10.5,76,0.00,,,0.31,TxWx,2013-01-11 11:34:00,
2013-01-11 06:37:00,75.6,68.0,30.20,ESE,118,8.7,9.9,76,0.00,,,0.31,TxWx,2013-01-11 11:37:00,
2013-01-11 06:39:00,75.4,67.0,30.20,SE,141,13.6,14.2,76,0.00,,,0.31,TxWx,2013-01-11 11:39:00,
2013-01-11 06:40:00,75.5,67.0,30.20,SE,141,10.5,10.5,76,0.00,,,0.31,TxWx,2013-01-11 11:40:00,
2013-01-11 06:42:00,75.6,68.0,30.20,ESE,118,10.5,11.1,76,0.00,,,0.31,TxWx,2013-01-11 11:42:00,
2013-01-11 06:44:00,75.5,67.0,30.20,SSE,163,9.9,13.0,76,0.00,,,0.31,TxWx,2013-01-11 11:44:00,
2013-01-11 06:45:00,75.8,68.0,30.20,SE,141,8.0,9.3,76,0.00,,,0.31,TxWx,2013-01-11 11:45:00,
2013-01-11 06:46:00,75.6,68.0,30.20,SE,141,9.9,11.1,76,0.00,,,0.31,TxWx,2013-01-11 11:46:00,
2013-01-11 06:49:00,75.6,68.0,30.20,SSE,163,13.0,13.0,76,0.00,,,0.31,TxWx,2013-01-11 11:49:00,
2013-01-11 06:50:00,75.4,67.0,30.20,SE,141,14.2,15.5,76,0.00,,,0.31,TxWx,2013-01-11 11:50:00,
2013-01-11 06:51:00,75.7,68.0,30.20,SE,141,11.1,12.4,76,0.00,,,0.31,TxWx,2013-01-11 11:51:00,
2013-01-11 06:54:00,75.5,67.0,30.20,SE,141,13.0,13.0,77,0.00,,,0.31,TxWx,2013-01-11 11:54:00,
2013-01-11 06:55:00,75.8,68.0,30.20,SE,141,8.7,8.7,77,0.00,,,0.31,TxWx,2013-01-11 11:55:00,
2013-01-11 06:56:00,75.4,67.0,30.20,SE,141,8.0,9.3,77,0.00,,,0.31,TxWx,2013-01-11 11:56:00,
2013-01-11 06:57:00,75.6,68.0,30.20,SE,141,9.9,9.9,77,0.00,,,0.31,TxWx,2013-01-11 11:57:00,
2013-01-11 07:00:00,75.4,67.0,30.21,SSE,163,12.4,12.4,77,0.00,,,0.31,TxWx,2013-01-11 12:00:00,
2013-01-11 07:02:00,75.2,67.0,30.21,SE,141,10.5,10.5,76,0.00,,,0.31,TxWx,2013-01-11 12:02:00,
2013-01-11 07:07:00,75.2,67.0,30.20,SE,141,13.0,13.0,75,0.00,,,0.31,TxWx,2013-01-11 12:07:00,
2013-01-11 07:08:00,75.6,68.0,30.20,ESE,118,10.5,12.4,76,0.00,,,0.31,TxWx,2013-01-11 12:08:00,
2013-01-11 07:10:00,75.4,67.0,30.20,SE,141,13.0,13.6,76,0.00,,,0.31,TxWx,2013-01-11 12:10:00,
2013-01-11 07:12:00,75.2,67.0,30.20,SE,141,12.4,14.2,76,0.00,,,0.31,TxWx,2013-01-11 12:12:00,
2013-01-11 07:14:00,75.6,68.0,30.21,SE,141,11.1,13.6,76,0.00,,,0.31,TxWx,2013-01-11 12:14:00,
2013-01-11 07:16:00,75.5,67.0,30.21,SE,141,11.8,11.8,76,0.00,,,0.31,TxWx,2013-01-11 12:16:00,
2013-01-11 07:19:00,75.3,67.0,30.21,SE,141,11.8,11.8,76,0.00,,,0.31,TxWx,2013-01-11 12:19:00,
2013-01-11 07:20:00,75.3,67.0,30.21,ESE,118,13.0,14.2,75,0.00,,,0.31,TxWx,2013-01-11 12:20:00,
2013-01-11 07:24:00,75.8,68.0,30.21,SE,141,8.7,8.7,76,0.00,,,0.31,TxWx,2013-01-11 12:24:00,
2013-01-11 07:26:00,75.5,68.0,30.21,SE,141,11.1,11.1,76,0.00,,,0.31,TxWx,2013-01-11 12:26:00,
2013-01-11 07:29:00,75.3,67.0,30.21,SE,141,9.9,11.1,76,0.00,,,0.31,TxWx,2013-01-11 12:29:00,
2013-01-11 07:30:00,75.3,67.0,30.21,SE,141,10.5,11.8,76,0.00,,,0.31,TxWx,2013-01-11 12:30:00,
2013-01-11 07:31:00,75.5,67.0,30.21,SE,141,7.4,8.7,76,0.00,,,0.31,TxWx,2013-01-11 12:31:00,
2013-01-11 07:33:00,75.6,68.0,30.22,SE,141,7.4,7.4,76,0.00,,,0.31,TxWx,2013-01-11 12:33:00,
2013-01-11 07:36:00,75.6,68.0,30.21,ESE,118,7.4,8.7,77,0.00,,,0.31,TxWx,2013-01-11 12:36:00,
2013-01-11 07:37:00,75.3,67.0,30.21,SE,141,9.9,9.9,76,0.00,,,0.31,TxWx,2013-01-11 12:37:00,
2013-01-11 07:38:00,75.2,67.0,30.21,ESE,118,10.5,10.5,76,0.00,,,0.31,TxWx,2013-01-11 12:38:00,
2013-01-11 07:41:00,75.4,67.0,30.22,SE,141,8.7,9.9,76,0.00,,,0.31,TxWx,2013-01-11 12:41:00,
2013-01-11 07:42:00,75.5,68.0,30.22,SE,141,9.9,9.9,76,0.00,,,0.31,TxWx,2013-01-11 12:42:00,
2013-01-11 07:43:00,75.4,67.0,30.22,SE,141,12.4,12.4,76,0.00,,,0.31,TxWx,2013-01-11 12:43:00,
2013-01-11 07:45:00,75.5,68.0,30.22,SE,141,9.3,9.9,76,0.00,,,0.31,TxWx,2013-01-11 12:45:00,
2013-01-11 07:47:00,75.2,67.0,30.21,SSE,163,11.1,12.4,76,0.00,,,0.31,TxWx,2013-01-11 12:47:00,
2013-01-11 07:49:00,75.3,67.0,30.21,ESE,118,8.7,9.9,76,0.00,,,0.31,TxWx,2013-01-11 12:49:00,
2013-01-11 07:51:00,75.5,68.0,30.22,ESE,118,8.0,8.0,76,0.00,,,0.31,TxWx,2013-01-11 12:51:00,
2013-01-11 07:52:00,75.5,68.0,30.22,SE,141,13.6,13.6,77,0.00,,,0.31,TxWx,2013-01-11 12:52:00,
2013-01-11 07:54:00,75.4,67.0,30.22,SE,141,12.4,13.6,76,0.00,,,0.31,TxWx,2013-01-11 12:54:00,
2013-01-11 07:55:00,75.5,68.0,30.22,ESE,118,13.0,13.0,76,0.00,,,0.31,TxWx,2013-01-11 12:55:00,
2013-01-11 07:58:00,75.3,67.0,30.22,SE,141,8.7,8.7,76,0.00,,,0.31,TxWx,2013-01-11 12:58:00,
2013-01-11 07:59:00,75.7,68.0,30.22,SE,141,7.4,8.0,76,0.00,,,0.31,TxWx,2013-01-11 12:59:00,
2013-01-11 08:00:00,75.6,68.0,30.22,SE,141,7.4,8.0,76,0.00,,,0.31,TxWx,2013-01-11 13:00:00,
2013-01-11 08:01:00,75.6,68.0,30.22,SE,141,9.9,9.9,76,0.00,,,0.31,TxWx,2013-01-11 13:01:00,
2013-01-11 08:04:00,75.5,68.0,30.22,SE,141,9.9,9.9,76,0.00,,,0.31,TxWx,2013-01-11 13:04:00,
2013-01-11 08:05:00,75.3,67.0,30.22,SE,141,9.3,11.1,76,0.00,,,0.31,TxWx,2013-01-11 13:05:00,
2013-01-11 08:06:00,75.5,67.0,30.22,SSE,163,8.0,8.0,76,0.00,,,0.31,TxWx,2013-01-11 13:06:00,
2013-01-11 08:08:00,75.7,68.0,30.22,SSE,163,10.5,10.5,76,0.00,,,0.31,TxWx,2013-01-11 13:08:00,
2013-01-11 08:10:00,75.5,67.0,30.22,SSE,163,9.3,9.3,75,0.00,,,0.31,TxWx,2013-01-11 13:10:00,
2013-01-11 08:12:00,75.5,67.0,30.22,SE,141,10.5,10.5,75,0.00,,,0.31,TxWx,2013-01-11 13:12:00,
2013-01-11 08:13:00,75.7,68.0,30.22,SE,141,10.5,10.5,76,0.00,,,0.31,TxWx,2013-01-11 13:13:00,
2013-01-11 08:16:00,75.7,67.0,30.22,SE,141,11.1,11.8,75,0.00,,,0.31,TxWx,2013-01-11 13:16:00,
2013-01-11 08:17:00,75.8,67.0,30.22,SE,141,11.8,14.2,75,0.00,,,0.31,TxWx,2013-01-11 13:17:00,
2013-01-11 08:18:00,75.8,67.0,30.22,SE,141,9.9,9.9,75,0.00,,,0.31,TxWx,2013-01-11 13:18:00,
2013-01-11 08:19:00,75.7,67.0,30.22,SSE,163,7.4,8.0,75,0.00,,,0.31,TxWx,2013-01-11 13:19:00,
2013-01-11 08:22:00,76.0,68.0,30.22,SE,141,9.9,11.8,76,0.00,,,0.31,TxWx,2013-01-11 13:22:00,
2013-01-11 08:25:00,75.8,68.0,30.22,SE,141,11.1,12.4,76,0.00,,,0.31,TxWx,2013-01-11 13:25:00,
2013-01-11 08:26:00,75.8,67.0,30.22,ESE,118,11.1,12.4,75,0.00,,,0.31,TxWx,2013-01-11 13:26:00,
2013-01-11 08:30:00,75.6,67.0,30.22,SE,141,11.1,12.4,75,0.00,,,0.31,TxWx,2013-01-11 13:30:00,
2013-01-11 08:31:00,75.5,67.0,30.22,SE,141,11.8,13.0,75,0.00,,,0.31,TxWx,2013-01-11 13:31:00,
2013-01-11 08:33:00,75.6,67.0,30.22,SE,141,9.9,11.8,75,0.00,,,0.31,TxWx,2013-01-11 13:33:00,
2013-01-11 08:36:00,75.8,68.0,30.22,SE,141,11.8,11.8,76,0.00,,,0.31,TxWx,2013-01-11 13:36:00,
2013-01-11 08:38:00,75.7,68.0,30.22,SE,141,10.5,11.8,76,0.00,,,0.31,TxWx,2013-01-11 13:38:00,
2013-01-11 08:42:00,75.7,68.0,30.22,SE,141,13.0,16.1,76,0.00,,,0.31,TxWx,2013-01-11 13:42:00,
2013-01-11 08:43:00,76.0,68.0,30.23,ESE,118,10.5,11.1,77,0.00,,,0.31,TxWx,2013-01-11 13:43:00,
2013-01-11 08:48:00,75.7,68.0,30.23,SE,141,11.8,11.8,77,0.00,,,0.31,TxWx,2013-01-11 13:48:00,
2013-01-11 08:49:00,75.8,68.0,30.23,SE,141,12.4,13.6,77,0.00,,,0.31,TxWx,2013-01-11 13:49:00,
2013-01-11 08:53:00,75.7,69.0,30.23,SE,141,14.2,14.2,78,0.00,,,0.31,TxWx,2013-01-11 13:53:00,
2013-01-11 08:54:00,75.7,69.0,30.23,ESE,118,12.4,12.4,78,0.00,,,0.31,TxWx,2013-01-11 13:54:00,
2013-01-11 08:55:00,75.6,69.0,30.23,ESE,118,14.9,14.9,78,0.00,,,0.31,TxWx,2013-01-11 13:55:00,
2013-01-11 08:59:00,75.9,69.0,30.23,ESE,118,11.8,12.4,79,0.00,,,0.31,TxWx,2013-01-11 13:59:00,
2013-01-11 09:02:00,75.3,68.0,30.23,ESE,118,16.1,16.1,79,0.00,,,0.31,TxWx,2013-01-11 14:02:00,
2013-01-11 09:05:00,75.4,68.0,30.23,East,96,12.4,12.4,79,0.00,,,0.31,TxWx,2013-01-11 14:05:00,
2013-01-11 09:06:00,75.5,69.0,30.23,SE,141,11.1,11.1,80,0.00,,,0.31,TxWx,2013-01-11 14:06:00,
2013-01-11 09:07:00,75.5,68.0,30.24,East,96,11.8,11.8,80,0.00,,,0.31,TxWx,2013-01-11 14:07:00,
2013-01-11 09:10:00,75.4,68.0,30.23,ESE,118,10.5,11.8,80,0.00,,,0.31,TxWx,2013-01-11 14:10:00,
2013-01-11 09:12:00,75.3,68.0,30.23,ESE,118,10.5,10.5,80,0.00,,,0.31,TxWx,2013-01-11 14:12:00,
2013-01-11 09:13:00,75.3,68.0,30.23,ESE,118,13.0,13.0,80,0.00,,,0.31,TxWx,2013-01-11 14:13:00,
2013-01-11 09:15:00,75.3,68.0,30.23,ESE,118,13.0,14.9,79,0.00,,,0.31,TxWx,2013-01-11 14:15:00,
2013-01-11 09:18:00,75.5,68.0,30.23,SE,141,17.9,17.9,79,0.00,,,0.31,TxWx,2013-01-11 14:18:00,
2013-01-11 09:21:00,75.6,69.0,30.24,ESE,118,17.3,17.3,79,0.00,,,0.31,TxWx,2013-01-11 14:21:00,
2013-01-11 09:22:00,75.9,69.0,30.24,SE,141,15.5,17.3,79,0.00,,,0.31,TxWx,2013-01-11 14:22:00,
2013-01-11 09:25:00,76.0,69.0,30.24,SE,141,13.6,15.5,79,0.00,,,0.31,TxWx,2013-01-11 14:25:00,
2013-01-11 09:27:00,75.9,69.0,30.24,ESE,118,17.3,17.3,79,0.00,,,0.31,TxWx,2013-01-11 14:27:00,
2013-01-11 09:30:00,75.8,68.0,30.24,SE,141,13.0,13.0,78,0.00,,,0.31,TxWx,2013-01-11 14:30:00,
2013-01-11 09:32:00,75.8,69.0,30.24,SE,141,13.6,14.2,78,0.00,,,0.31,TxWx,2013-01-11 14:32:00,
2013-01-11 09:35:00,75.9,69.0,30.24,ESE,118,12.4,13.0,78,0.00,,,0.31,TxWx,2013-01-11 14:35:00,
2013-01-11 09:36:00,75.6,68.0,30.24,SE,141,13.0,13.6,78,0.00,,,0.31,TxWx,2013-01-11 14:36:00,
2013-01-11 09:38:00,75.7,68.0,30.25,ESE,118,12.4,12.4,78,0.00,,,0.31,TxWx,2013-01-11 14:38:00,
2013-01-11 09:41:00,75.8,68.0,30.25,ESE,118,11.1,12.4,78,0.00,,,0.31,TxWx,2013-01-11 14:41:00,
2013-01-11 09:43:00,76.0,69.0,30.25,SE,141,11.8,14.2,78,0.00,,,0.31,TxWx,2013-01-11 14:43:00,
2013-01-11 09:46:00,75.8,68.0,30.25,ESE,118,13.6,13.6,77,0.00,,,0.31,TxWx,2013-01-11 14:46:00,
2013-01-11 09:47:00,75.9,68.0,30.25,ESE,118,11.8,13.0,77,0.00,,,0.31,TxWx,2013-01-11 14:47:00,
2013-01-11 09:48:00,76.0,68.0,30.25,SE,141,13.6,13.6,77,0.00,,,0.31,TxWx,2013-01-11 14:48:00,
2013-01-11 09:51:00,76.0,68.0,30.25,SE,141,11.8,11.8,77,0.00,,,0.31,TxWx,2013-01-11 14:51:00,
2013-01-11 09:54:00,76.1,68.0,30.25,ESE,118,11.1,13.0,77,0.00,,,0.31,TxWx,2013-01-11 14:54:00,
2013-01-11 09:57:00,75.7,68.0,30.25,ESE,118,14.2,14.2,77,0.00,,,0.31,TxWx,2013-01-11 14:57:00,
2013-01-11 09:58:00,75.9,68.0,30.25,ESE,118,13.6,13.6,78,0.00,,,0.31,TxWx,2013-01-11 14:58:00,
2013-01-11 09:59:00,75.6,68.0,30.25,East,96,13.0,15.5,78,0.00,,,0.31,TxWx,2013-01-11 14:59:00,
2013-01-11 10:03:00,75.6,69.0,30.25,ESE,118,14.2,14.2,79,0.00,,,0.31,TxWx,2013-01-11 15:03:00,
2013-01-11 10:06:00,75.4,68.0,30.25,ESE,118,14.2,14.9,79,0.00,,,0.31,TxWx,2013-01-11 15:06:00,
2013-01-11 10:07:00,75.1,68.0,30.25,ESE,118,14.9,18.6,78,0.00,,,0.31,TxWx,2013-01-11 15:07:00,
2013-01-11 10:09:00,75.2,68.0,30.25,ESE,118,15.5,15.5,79,0.00,,,0.31,TxWx,2013-01-11 15:09:00,
2013-01-11 10:11:00,75.0,68.0,30.25,East,96,18.6,20.4,79,0.00,,,0.31,TxWx,2013-01-11 15:11:00,
2013-01-11 10:12:00,75.1,68.0,30.25,ESE,118,15.5,17.3,79,0.00,,,0.31,TxWx,2013-01-11 15:12:00,
2013-01-11 10:15:00,75.1,68.0,30.25,ESE,118,14.9,14.9,79,0.00,,,0.31,TxWx,2013-01-11 15:15:00,
2013-01-11 10:17:00,75.0,68.0,30.25,East,96,14.2,14.2,79,0.00,,,0.31,TxWx,2013-01-11 15:17:00,
2013-01-11 10:20:00,75.0,68.0,30.25,East,96,13.0,15.5,80,0.00,,,0.32,TxWx,2013-01-11 15:20:00,
2013-01-11 10:21:00,75.4,68.0,30.25,ESE,118,16.7,16.7,80,0.00,,,0.32,TxWx,2013-01-11 15:21:00,
2013-01-11 10:24:00,75.2,68.0,30.25,East,96,16.7,16.7,79,0.24,,,0.35,TxWx,2013-01-11 15:24:00,
2013-01-11 10:26:00,75.3,68.0,30.25,East,96,16.1,16.1,79,0.24,,,0.38,TxWx,2013-01-11 15:26:00,
2013-01-11 10:29:00,75.2,68.0,30.25,ESE,118,18.6,19.2,78,0.24,,,0.41,TxWx,2013-01-11 15:29:00,
2013-01-11 10:30:00,75.2,68.0,30.25,ESE,118,18.6,18.6,78,0.24,,,0.41,TxWx,2013-01-11 15:30:00,
2013-01-11 10:32:00,75.6,69.0,30.25,East,96,19.8,19.8,79,0.24,,,0.42,TxWx,2013-01-11 15:32:00,
2013-01-11 10:35:00,75.4,68.0,30.25,East,96,21.0,21.0,79,0.48,,,0.43,TxWx,2013-01-11 15:35:00,
2013-01-11 10:37:00,75.3,67.0,30.25,ESE,118,17.3,17.3,78,0.48,,,0.47,TxWx,2013-01-11 15:37:00,
2013-01-11 10:40:00,74.8,68.0,30.25,East,96,19.8,21.7,78,0.48,,,0.51,TxWx,2013-01-11 15:40:00,
2013-01-11 10:42:00,75.2,68.0,30.25,East,96,16.7,16.7,79,0.48,,,0.54,TxWx,2013-01-11 15:42:00,
2013-01-11 10:44:00,74.5,68.0,30.25,East,96,21.0,21.0,79,0.78,,,0.56,TxWx,2013-01-11 15:44:00,
2013-01-11 10:45:00,74.5,67.0,30.25,East,96,21.0,21.0,79,0.78,,,0.56,TxWx,2013-01-11 15:45:00,
2013-01-11 10:46:00,74.6,68.0,30.25,East,96,14.2,15.5,79,0.78,,,0.56,TxWx,2013-01-11 15:46:00,
2013-01-11 10:50:00,74.3,67.0,30.25,ESE,118,15.5,17.9,79,0.78,,,0.57,TxWx,2013-01-11 15:50:00,
2013-01-11 10:52:00,74.3,67.0,30.25,East,96,18.6,18.6,80,0.78,,,0.60,TxWx,2013-01-11 15:52:00,
2013-01-11 10:55:00,74.7,68.0,30.25,East,96,13.0,13.0,80,0.24,,,0.60,TxWx,2013-01-11 15:55:00,
2013-01-11 10:57:00,74.3,67.0,30.25,East,96,16.7,17.3,80,0.24,,,0.60,TxWx,2013-01-11 15:57:00,
2013-01-11 10:58:00,74.4,68.0,30.25,East,96,16.1,16.1,81,0.24,,,0.61,TxWx,2013-01-11 15:58:00,
2013-01-11 11:01:00,74.3,68.0,30.25,NE,51,15.5,15.5,81,0.24,,,0.70,TxWx,2013-01-11 16:01:00,
2013-01-11 11:02:00,74.0,68.0,30.24,East,96,15.5,15.5,81,0.24,,,0.71,TxWx,2013-01-11 16:02:00,
2013-01-11 11:04:00,74.2,68.0,30.25,East,96,11.1,11.1,82,0.66,,,0.71,TxWx,2013-01-11 16:04:00,
2013-01-11 11:05:00,74.1,68.0,30.25,ESE,118,12.4,13.0,82,0.66,,,0.71,TxWx,2013-01-11 16:05:00,
2013-01-11 11:06:00,73.8,68.0,30.24,East,96,16.7,17.9,81,0.66,,,0.71,TxWx,2013-01-11 16:06:00,
2013-01-11 11:07:00,73.8,68.0,30.24,East,96,13.6,15.5,81,0.66,,,0.71,TxWx,2013-01-11 16:07:00,
2013-01-11 11:11:00,74.7,69.0,30.24,East,96,18.6,18.6,82,0.66,,,0.71,TxWx,2013-01-11 16:11:00,
2013-01-11 11:12:00,74.7,69.0,30.24,ESE,118,17.9,17.9,82,0.66,,,0.71,TxWx,2013-01-11 16:12:00,
2013-01-11 11:17:00,74.6,69.0,30.24,ESE,118,17.9,19.2,81,0.30,,,0.85,TxWx,2013-01-11 16:17:00,
2013-01-11 11:19:00,74.5,68.0,30.24,East,96,19.8,19.8,80,0.30,,,0.87,TxWx,2013-01-11 16:19:00,
2013-01-11 11:21:00,74.1,67.0,30.24,ESE,118,17.9,23.5,80,0.30,,,0.89,TxWx,2013-01-11 16:21:00,
2013-01-11 11:22:00,74.2,67.0,30.24,ESE,118,17.3,17.3,80,0.30,,,0.92,TxWx,2013-01-11 16:22:00,
2013-01-11 11:26:00,74.3,67.0,30.24,East,96,18.6,18.6,80,0.96,,,0.92,TxWx,2013-01-11 16:26:00,
2013-01-11 11:27:00,74.3,67.0,30.24,East,96,16.1,18.6,80,0.96,,,0.92,TxWx,2013-01-11 16:27:00,
2013-01-11 11:28:00,74.6,68.0,30.24,East,96,13.0,14.9,80,0.96,,,0.92,TxWx,2013-01-11 16:28:00,
2013-01-11 11:32:00,74.5,67.0,30.24,NE,51,12.4,14.9,80,0.96,,,0.92,TxWx,2013-01-11 16:32:00,
2013-01-11 11:33:00,74.6,68.0,30.24,East,96,16.7,20.4,80,0.96,,,0.92,TxWx,2013-01-11 16:33:00,
2013-01-11 11:37:00,74.7,68.0,30.24,ESE,118,19.8,19.8,79,0.00,,,0.92,TxWx,2013-01-11 16:37:00,
2013-01-11 11:38:00,75.0,68.0,30.24,East,96,18.6,18.6,79,0.00,,,0.92,TxWx,2013-01-11 16:38:00,
2013-01-11 11:39:00,75.0,68.0,30.24,East,96,18.6,19.2,80,0.00,,,0.92,TxWx,2013-01-11 16:39:00,
2013-01-11 11:42:00,74.9,68.0,30.24,ESE,118,22.9,22.9,78,0.00,,,0.92,TxWx,2013-01-11 16:42:00,
2013-01-11 11:44:00,74.8,67.0,30.23,East,96,20.4,20.4,78,0.00,,,0.92,TxWx,2013-01-11 16:44:00,
2013-01-11 11:45:00,75.1,67.0,30.23,ENE,73,14.9,16.1,78,0.00,,,0.92,TxWx,2013-01-11 16:45:00,
2013-01-11 11:48:00,74.7,67.0,30.23,ESE,118,19.2,19.2,78,0.00,,,0.92,TxWx,2013-01-11 16:48:00,
2013-01-11 11:49:00,75.0,67.0,30.24,East,96,17.3,19.8,78,0.00,,,0.92,TxWx,2013-01-11 16:49:00,
2013-01-11 11:50:00,75.1,67.0,30.24,East,96,19.8,19.8,77,0.00,,,0.92,TxWx,2013-01-11 16:50:00,
2013-01-11 11:54:00,75.1,67.0,30.23,East,96,19.8,19.8,77,0.00,,,0.92,TxWx,2013-01-11 16:54:00,
2013-01-11 11:55:00,75.4,67.0,30.23,East,96,19.2,21.0,78,0.00,,,0.92,TxWx,2013-01-11 16:55:00,
2013-01-11 12:00:00,74.9,67.0,30.23,East,96,20.4,22.3,77,0.00,,,0.92,TxWx,2013-01-11 17:00:00,
2013-01-11 12:01:00,75.2,67.0,30.23,East,96,18.6,22.3,77,0.00,,,0.92,TxWx,2013-01-11 17:01:00,
2013-01-11 12:05:00,75.4,67.0,30.23,East,96,22.3,22.3,77,0.00,,,0.92,TxWx,2013-01-11 17:05:00,
2013-01-11 12:06:00,75.5,68.0,30.23,ESE,118,16.1,17.9,77,0.00,,,0.92,TxWx,2013-01-11 17:06:00,
2013-01-11 12:09:00,75.4,67.0,30.23,SE,141,16.1,19.2,77,0.00,,,0.92,TxWx,2013-01-11 17:09:00,
2013-01-11 12:10:00,75.0,67.0,30.23,East,96,19.8,21.7,76,0.00,,,0.92,TxWx,2013-01-11 17:10:00,
2013-01-11 12:11:00,75.1,67.0,30.23,East,96,18.6,18.6,76,0.00,,,0.92,TxWx,2013-01-11 17:11:00,
2013-01-11 12:12:00,75.2,67.0,30.23,ESE,118,17.3,17.9,76,0.00,,,0.92,TxWx,2013-01-11 17:12:00,
2013-01-11 12:17:00,75.1,67.0,30.23,East,96,19.2,20.4,77,0.00,,,0.92,TxWx,2013-01-11 17:17:00,
2013-01-11 12:18:00,75.2,67.0,30.23,East,96,19.8,20.4,77,0.00,,,0.92,TxWx,2013-01-11 17:18:00,
2013-01-11 12:19:00,74.9,67.0,30.23,East,96,14.9,20.4,77,0.00,,,0.92,TxWx,2013-01-11 17:19:00,
2013-01-11 12:22:00,75.1,67.0,30.23,ESE,118,19.2,19.2,77,0.00,,,0.92,TxWx,2013-01-11 17:22:00,
2013-01-11 12:23:00,75.2,67.0,30.23,East,96,16.1,19.8,77,0.00,,,0.92,TxWx,2013-01-11 17:23:00,
2013-01-11 12:24:00,75.1,67.0,30.22,East,96,16.7,17.3,77,0.00,,,0.92,TxWx,2013-01-11 17:24:00,
2013-01-11 12:25:00,75.1,67.0,30.22,East,96,19.8,19.8,77,0.00,,,0.92,TxWx,2013-01-11 17:25:00,
2013-01-11 12:28:00,75.2,67.0,30.22,East,96,21.7,21.7,77,0.00,,,0.92,TxWx,2013-01-11 17:28:00,
2013-01-11 12:29:00,75.2,67.0,30.22,East,96,18.6,19.8,77,0.00,,,0.92,TxWx,2013-01-11 17:29:00,
2013-01-11 12:31:00,75.0,67.0,30.22,ESE,118,20.4,21.0,77,0.00,,,0.92,TxWx,2013-01-11 17:31:00,
2013-01-11 12:34:00,75.5,67.0,30.22,East,96,17.9,18.6,78,0.00,,,0.92,TxWx,2013-01-11 17:34:00,
2013-01-11 12:35:00,75.0,67.0,30.22,ESE,118,16.7,17.9,77,0.00,,,0.92,TxWx,2013-01-11 17:35:00,
2013-01-11 12:36:00,75.3,67.0,30.22,ESE,118,19.2,19.2,77,0.00,,,0.92,TxWx,2013-01-11 17:36:00,
2013-01-11 12:38:00,75.2,67.0,30.22,East,96,21.0,21.0,77,0.00,,,0.92,TxWx,2013-01-11 17:38:00,
2013-01-11 12:41:00,75.4,67.0,30.22,East,96,17.3,17.9,77,0.00,,,0.92,TxWx,2013-01-11 17:41:00,
2013-01-11 12:42:00,75.0,67.0,30.22,ESE,118,17.3,17.3,77,0.00,,,0.92,TxWx,2013-01-11 17:42:00,
2013-01-11 12:44:00,75.1,67.0,30.21,East,96,17.9,17.9,77,0.00,,,0.92,TxWx,2013-01-11 17:44:00,
2013-01-11 12:47:00,75.4,67.0,30.21,East,96,18.6,18.6,77,0.00,,,0.92,TxWx,2013-01-11 17:47:00,
2013-01-11 12:49:00,75.3,67.0,30.21,East,96,17.9,17.9,76,0.00,,,0.92,TxWx,2013-01-11 17:49:00,
2013-01-11 12:52:00,75.4,67.0,30.21,ENE,73,16.1,16.7,76,0.00,,,0.92,TxWx,2013-01-11 17:52:00,
2013-01-11 12:53:00,75.5,67.0,30.21,East,96,18.6,18.6,77,0.00,,,0.92,TxWx,2013-01-11 17:53:00,
2013-01-11 12:56:00,75.5,67.0,30.21,East,96,21.7,21.7,77,0.00,,,0.92,TxWx,2013-01-11 17:56:00,
2013-01-11 12:57:00,75.8,68.0,30.21,ESE,118,15.5,15.5,76,0.00,,,0.92,TxWx,2013-01-11 17:57:00,
2013-01-11 12:59:00,75.4,67.0,30.21,East,96,19.2,19.2,76,0.00,,,0.92,TxWx,2013-01-11 17:59:00,
2013-01-11 13:02:00,75.5,68.0,30.21,East,96,16.7,16.7,76,0.00,,,0.92,TxWx,2013-01-11 18:02:00,
2013-01-11 13:03:00,75.3,67.0,30.21,East,96,17.9,21.0,76,0.00,,,0.92,TxWx,2013-01-11 18:03:00,
2013-01-11 13:04:00,75.4,67.0,30.21,East,96,14.9,17.3,77,0.00,,,0.92,TxWx,2013-01-11 18:04:00,
2013-01-11 13:05:00,75.3,67.0,30.21,East,96,14.9,17.3,77,0.00,,,0.92,TxWx,2013-01-11 18:05:00,
2013-01-11 13:09:00,75.0,67.0,30.21,East,96,19.2,19.2,76,0.00,,,0.92,TxWx,2013-01-11 18:09:00,
2013-01-11 13:11:00,75.1,67.0,30.21,East,96,19.8,19.8,77,0.00,,,0.92,TxWx,2013-01-11 18:11:00,
2013-01-11 13:15:00,75.0,67.0,30.20,East,96,17.3,17.3,76,0.00,,,0.92,TxWx,2013-01-11 18:15:00,
2013-01-11 13:17:00,75.3,67.0,30.20,East,96,17.3,18.6,77,0.00,,,0.92,TxWx,2013-01-11 18:17:00,
2013-01-11 13:18:00,75.0,67.0,30.20,East,96,18.6,18.6,76,0.00,,,0.92,TxWx,2013-01-11 18:18:00,
2013-01-11 13:20:00,75.0,67.0,30.20,East,96,19.2,19.2,77,0.00,,,0.92,TxWx,2013-01-11 18:20:00,
2013-01-11 13:22:00,75.2,67.0,30.20,East,96,14.9,18.6,77,0.00,,,0.92,TxWx,2013-01-11 18:22:00,
2013-01-11 13:25:00,75.1,67.0,30.20,NE,51,17.3,17.3,77,0.00,,,0.92,TxWx,2013-01-11 18:25:00,
2013-01-11 13:29:00,75.4,67.0,30.20,East,96,17.3,17.3,78,0.00,,,0.92,TxWx,2013-01-11 18:29:00,
2013-01-11 13:30:00,75.2,68.0,30.20,East,96,17.9,18.6,78,0.00,,,0.92,TxWx,2013-01-11 18:30:00,
2013-01-11 13:31:00,74.9,67.0,30.20,ESE,118,14.2,15.5,77,0.00,,,0.92,TxWx,2013-01-11 18:31:00,
2013-01-11 13:34:00,74.9,67.0,30.19,East,96,17.3,19.2,76,0.00,,,0.92,TxWx,2013-01-11 18:34:00,
2013-01-11 13:35:00,75.0,67.0,30.19,East,96,21.0,23.5,77,0.00,,,0.92,TxWx,2013-01-11 18:35:00,
2013-01-11 13:37:00,75.0,67.0,30.19,ESE,118,16.1,21.0,77,0.00,,,0.92,TxWx,2013-01-11 18:37:00,
2013-01-11 13:38:00,74.8,67.0,30.19,East,96,20.4,22.3,76,0.00,,,0.92,TxWx,2013-01-11 18:38:00,
2013-01-11 13:41:00,75.0,67.0,30.19,ESE,118,22.9,23.5,77,0.00,,,0.92,TxWx,2013-01-11 18:41:00,
2013-01-11 13:43:00,75.0,67.0,30.19,East,96,19.2,19.2,77,0.00,,,0.92,TxWx,2013-01-11 18:43:00,
2013-01-11 13:44:00,74.9,67.0,30.19,East,96,24.1,24.1,76,0.00,,,0.92,TxWx,2013-01-11 18:44:00,
2013-01-11 13:47:00,75.1,67.0,30.19,SE,141,17.9,21.0,77,0.00,,,0.92,TxWx,2013-01-11 18:47:00,
2013-01-11 13:48:00,75.2,67.0,30.19,ESE,118,17.9,17.9,77,0.00,,,0.92,TxWx,2013-01-11 18:48:00,
2013-01-11 13:49:00,75.2,67.0,30.19,East,96,18.6,18.6,77,0.00,,,0.92,TxWx,2013-01-11 18:49:00,
2013-01-11 13:52:00,75.2,67.0,30.19,East,96,14.9,17.9,76,0.00,,,0.92,TxWx,2013-01-11 18:52:00,
2013-01-11 13:53:00,75.2,67.0,30.19,East,96,16.1,16.1,76,0.00,,,0.92,TxWx,2013-01-11 18:53:00,
2013-01-11 13:54:00,75.1,67.0,30.19,ESE,118,21.0,21.0,76,0.00,,,0.92,TxWx,2013-01-11 18:54:00,
2013-01-11 13:57:00,75.2,67.0,30.19,East,96,14.2,14.2,76,0.00,,,0.92,TxWx,2013-01-11 18:57:00,
2013-01-11 13:58:00,75.2,67.0,30.19,East,96,17.3,17.3,76,0.00,,,0.92,TxWx,2013-01-11 18:58:00,
2013-01-11 13:59:00,75.2,67.0,30.19,East,96,16.1,16.1,76,0.00,,,0.92,TxWx,2013-01-11 18:59:00,
2013-01-11 14:00:00,75.4,67.0,30.19,ESE,118,17.3,17.3,76,0.00,,,0.92,TxWx,2013-01-11 19:00:00,
2013-01-11 14:02:00,75.2,67.0,30.19,East,96,14.2,16.7,76,0.00,,,0.92,TxWx,2013-01-11 19:02:00,
2013-01-11 14:04:00,75.3,67.0,30.19,East,96,14.2,16.7,76,0.00,,,0.92,TxWx,2013-01-11 19:04:00,
2013-01-11 14:05:00,75.3,67.0,30.19,ESE,118,16.7,16.7,76,0.00,,,0.92,TxWx,2013-01-11 19:05:00,
2013-01-11 14:06:00,75.3,67.0,30.19,ESE,118,13.0,13.0,76,0.00,,,0.92,TxWx,2013-01-11 19:06:00,
2013-01-11 14:08:00,75.2,67.0,30.19,ESE,118,13.6,14.2,76,0.00,,,0.92,TxWx,2013-01-11 19:08:00,
2013-01-11 14:10:00,75.3,67.0,30.19,ENE,73,14.2,14.2,76,0.00,,,0.92,TxWx,2013-01-11 19:10:00,
2013-01-11 14:12:00,75.0,67.0,30.19,ESE,118,16.7,17.9,75,0.00,,,0.92,TxWx,2013-01-11 19:12:00,
2013-01-11 14:14:00,75.3,67.0,30.19,ESE,118,14.2,18.6,76,0.00,,,0.92,TxWx,2013-01-11 19:14:00,
2013-01-11 14:16:00,75.2,67.0,30.19,East,96,17.9,18.6,75,0.00,,,0.92,TxWx,2013-01-11 19:16:00,
2013-01-11 14:17:00,75.5,67.0,30.19,East,96,11.1,13.6,75,0.00,,,0.92,TxWx,2013-01-11 19:17:00,
2013-01-11 14:20:00,75.2,67.0,30.18,East,96,17.9,17.9,75,0.00,,,0.92,TxWx,2013-01-11 19:20:00,
2013-01-11 14:22:00,75.4,67.0,30.18,East,96,15.5,16.7,76,0.00,,,0.92,TxWx,2013-01-11 19:22:00,
2013-01-11 14:23:00,75.4,67.0,30.18,ESE,118,13.6,16.1,76,0.00,,,0.92,TxWx,2013-01-11 19:23:00,
2013-01-11 14:26:00,75.1,67.0,30.18,East,96,17.9,17.9,75,0.00,,,0.92,TxWx,2013-01-11 19:26:00,
2013-01-11 14:27:00,75.5,67.0,30.18,East,96,14.2,14.2,76,0.00,,,0.92,TxWx,2013-01-11 19:27:00,
2013-01-11 14:28:00,75.4,67.0,30.18,East,96,15.5,16.7,75,0.00,,,0.92,TxWx,2013-01-11 19:28:00,
2013-01-11 14:29:00,75.5,67.0,30.18,East,96,13.6,15.5,75,0.00,,,0.92,TxWx,2013-01-11 19:29:00,
2013-01-11 14:32:00,75.6,67.0,30.18,East,96,14.9,14.9,75,0.00,,,0.92,TxWx,2013-01-11 19:32:00,
2013-01-11 14:33:00,75.6,67.0,30.18,East,96,15.5,15.5,75,0.00,,,0.92,TxWx,2013-01-11 19:33:00,
2013-01-11 14:34:00,75.5,67.0,30.18,ESE,118,13.6,16.1,75,0.00,,,0.92,TxWx,2013-01-11 19:34:00,
2013-01-11 14:38:00,75.7,67.0,30.18,ESE,118,13.6,14.9,75,0.00,,,0.92,TxWx,2013-01-11 19:38:00,
2013-01-11 14:39:00,75.6,67.0,30.18,East,96,13.0,14.2,75,0.00,,,0.92,TxWx,2013-01-11 19:39:00,
2013-01-11 14:40:00,75.8,67.0,30.18,East,96,13.0,14.9,75,0.00,,,0.92,TxWx,2013-01-11 19:40:00,
2013-01-11 14:42:00,75.8,67.0,30.18,SE,141,13.0,13.0,75,0.00,,,0.92,TxWx,2013-01-11 19:42:00,
2013-01-11 14:43:00,76.2,68.0,30.18,SE,141,11.1,11.1,76,0.00,,,0.92,TxWx,2013-01-11 19:43:00,
2013-01-11 14:45:00,75.5,66.0,30.18,East,96,17.3,17.9,75,0.00,,,0.92,TxWx,2013-01-11 19:45:00,
2013-01-11 14:49:00,75.9,67.0,30.18,East,96,12.4,12.4,75,0.00,,,0.92,TxWx,2013-01-11 19:49:00,
2013-01-11 14:50:00,76.0,67.0,30.18,ESE,118,15.5,15.5,75,0.00,,,0.92,TxWx,2013-01-11 19:50:00,
2013-01-11 14:54:00,75.7,67.0,30.18,ESE,118,15.5,16.7,74,0.00,,,0.92,TxWx,2013-01-11 19:54:00,
2013-01-11 14:56:00,75.9,67.0,30.18,ESE,118,13.0,16.1,74,0.00,,,0.92,TxWx,2013-01-11 19:56:00,
2013-01-11 14:58:00,75.6,67.0,30.18,East,96,14.9,14.9,73,0.00,,,0.92,TxWx,2013-01-11 19:58:00,
2013-01-11 15:00:00,75.9,67.0,30.17,East,96,14.9,17.3,75,0.00,,,0.92,TxWx,2013-01-11 20:00:00,
2013-01-11 15:01:00,75.8,67.0,30.18,ESE,118,16.1,17.9,75,0.00,,,0.92,TxWx,2013-01-11 20:01:00,
2013-01-11 15:03:00,75.2,66.0,30.18,ESE,118,16.1,17.3,74,0.00,,,0.92,TxWx,2013-01-11 20:03:00,
2013-01-11 15:05:00,75.4,66.0,30.18,East,96,13.6,15.5,73,0.00,,,0.92,TxWx,2013-01-11 20:05:00,
2013-01-11 15:06:00,75.7,67.0,30.18,ESE,118,13.6,14.9,74,0.00,,,0.92,TxWx,2013-01-11 20:06:00,
2013-01-11 15:08:00,75.7,67.0,30.18,East,96,12.4,13.6,75,0.00,,,0.92,TxWx,2013-01-11 20:08:00,
2013-01-11 15:10:00,75.5,67.0,30.17,East,96,14.2,14.2,74,0.00,,,0.92,TxWx,2013-01-11 20:10:00,
2013-01-11 15:12:00,75.8,67.0,30.17,East,96,11.8,13.6,75,0.00,,,0.92,TxWx,2013-01-11 20:12:00,
2013-01-11 15:13:00,75.5,67.0,30.18,ESE,118,13.0,13.6,74,0.00,,,0.92,TxWx,2013-01-11 20:13:00,
2013-01-11 15:15:00,75.4,66.0,30.18,ESE,118,16.1,16.1,74,0.00,,,0.92,TxWx,2013-01-11 20:15:00,
2013-01-11 15:16:00,75.5,67.0,30.18,East,96,15.5,16.1,74,0.00,,,0.92,TxWx,2013-01-11 20:16:00,
2013-01-11 15:18:00,75.8,67.0,30.18,East,96,17.3,17.3,74,0.00,,,0.92,TxWx,2013-01-11 20:18:00,
2013-01-11 15:19:00,75.7,67.0,30.18,ESE,118,13.0,14.9,74,0.00,,,0.92,TxWx,2013-01-11 20:19:00,
2013-01-11 15:20:00,75.8,67.0,30.18,ESE,118,12.4,13.6,74,0.00,,,0.92,TxWx,2013-01-11 20:20:00,
2013-01-11 15:23:00,75.6,66.0,30.18,East,96,13.6,14.9,72,0.00,,,0.92,TxWx,2013-01-11 20:23:00,
2013-01-11 15:24:00,76.0,67.0,30.18,ESE,118,15.5,15.5,73,0.00,,,0.92,TxWx,2013-01-11 20:24:00,
2013-01-11 15:25:00,75.9,66.0,30.18,East,96,13.6,15.5,73,0.00,,,0.92,TxWx,2013-01-11 20:25:00,
2013-01-11 15:29:00,75.9,67.0,30.18,ESE,118,11.1,12.4,73,0.00,,,0.92,TxWx,2013-01-11 20:29:00,
2013-01-11 15:30:00,75.7,67.0,30.18,East,96,14.2,14.2,73,0.00,,,0.92,TxWx,2013-01-11 20:30:00,
2013-01-11 15:31:00,75.8,66.0,30.18,East,96,11.8,13.0,73,0.00,,,0.92,TxWx,2013-01-11 20:31:00,
2013-01-11 15:35:00,75.7,67.0,30.17,East,96,17.9,17.9,74,0.00,,,0.92,TxWx,2013-01-11 20:35:00,
2013-01-11 15:36:00,75.8,67.0,30.17,ESE,118,13.0,13.6,73,0.00,,,0.92,TxWx,2013-01-11 20:36:00,
2013-01-11 15:40:00,75.5,66.0,30.17,ESE,118,14.2,15.5,73,0.00,,,0.92,TxWx,2013-01-11 20:40:00,
2013-01-11 15:41:00,76.2,67.0,30.17,East,96,17.9,17.9,73,0.00,,,0.92,TxWx,2013-01-11 20:41:00,
2013-01-11 15:42:00,76.0,67.0,30.17,ESE,118,15.5,15.5,73,0.00,,,0.92,TxWx,2013-01-11 20:42:00,
2013-01-11 15:43:00,75.8,67.0,30.17,ESE,118,14.2,19.8,73,0.00,,,0.92,TxWx,2013-01-11 20:43:00,
2013-01-11 15:46:00,75.9,67.0,30.17,SE,141,15.5,17.3,74,0.00,,,0.92,TxWx,2013-01-11 20:46:00,
2013-01-11 15:47:00,75.8,67.0,30.17,ESE,118,16.1,16.7,74,0.00,,,0.92,TxWx,2013-01-11 20:47:00,
2013-01-11 15:48:00,75.8,66.0,30.17,East,96,15.5,15.5,72,0.00,,,0.92,TxWx,2013-01-11 20:48:00,
2013-01-11 15:51:00,75.8,66.0,30.17,ESE,118,16.7,17.3,72,0.00,,,0.92,TxWx,2013-01-11 20:51:00,
2013-01-11 15:53:00,75.6,66.0,30.17,ESE,118,17.9,17.9,72,0.00,,,0.92,TxWx,2013-01-11 20:53:00,
2013-01-11 15:55:00,76.2,67.0,30.17,ESE,118,14.2,15.5,73,0.00,,,0.92,TxWx,2013-01-11 20:55:00,
2013-01-11 15:56:00,75.6,66.0,30.17,ESE,118,16.7,17.3,73,0.00,,,0.92,TxWx,2013-01-11 20:56:00,
2013-01-11 15:59:00,75.5,65.0,30.17,East,96,16.1,16.1,72,0.00,,,0.92,TxWx,2013-01-11 20:59:00,
2013-01-11 16:00:00,75.8,66.0,30.17,East,96,17.3,17.3,73,0.00,,,0.92,TxWx,2013-01-11 21:00:00,
2013-01-11 16:02:00,75.8,66.0,30.17,East,96,12.4,12.4,72,0.00,,,0.92,TxWx,2013-01-11 21:02:00,
2013-01-11 16:05:00,75.8,66.0,30.17,ESE,118,15.5,15.5,73,0.00,,,0.92,TxWx,2013-01-11 21:05:00,
2013-01-11 16:06:00,76.2,67.0,30.17,SE,141,10.5,11.1,73,0.00,,,0.92,TxWx,2013-01-11 21:06:00,
2013-01-11 16:07:00,75.8,67.0,30.17,SE,141,14.2,14.2,73,0.00,,,0.92,TxWx,2013-01-11 21:07:00,
2013-01-11 16:09:00,76.0,67.0,30.17,ESE,118,13.0,13.6,73,0.00,,,0.92,TxWx,2013-01-11 21:09:00,
2013-01-11 16:11:00,76.0,67.0,30.17,ESE,118,13.0,13.6,74,0.00,,,0.92,TxWx,2013-01-11 21:11:00,
2013-01-11 16:13:00,75.7,67.0,30.18,ESE,118,13.6,13.6,73,0.00,,,0.92,TxWx,2013-01-11 21:13:00,
2013-01-11 16:14:00,75.7,67.0,30.18,SE,141,8.7,11.8,73,0.00,,,0.92,TxWx,2013-01-11 21:14:00,
2013-01-11 16:16:00,75.6,66.0,30.17,East,96,15.5,16.7,73,0.00,,,0.92,TxWx,2013-01-11 21:16:00,
2013-01-11 16:18:00,75.8,66.0,30.17,East,96,15.5,15.5,73,0.00,,,0.92,TxWx,2013-01-11 21:18:00,
2013-01-11 16:20:00,75.9,67.0,30.17,ESE,118,13.0,14.9,73,0.00,,,0.92,TxWx,2013-01-11 21:20:00,
2013-01-11 16:21:00,75.5,66.0,30.17,ESE,118,12.4,14.2,73,0.00,,,0.92,TxWx,2013-01-11 21:21:00,
2013-01-11 16:22:00,75.5,66.0,30.17,East,96,18.6,18.6,73,0.00,,,0.92,TxWx,2013-01-11 21:22:00,
2013-01-11 16:25:00,75.6,66.0,30.17,ESE,118,14.2,17.9,72,0.00,,,0.92,TxWx,2013-01-11 21:25:00,
2013-01-11 16:27:00,75.8,66.0,30.17,SE,141,11.8,14.9,73,0.00,,,0.92,TxWx,2013-01-11 21:27:00,
2013-01-11 16:30:00,75.7,67.0,30.17,ESE,118,16.7,17.9,73,0.00,,,0.92,TxWx,2013-01-11 21:30:00,
2013-01-11 16:31:00,75.5,66.0,30.17,ESE,118,16.7,16.7,72,0.00,,,0.92,TxWx,2013-01-11 21:31:00,
2013-01-11 16:33:00,75.4,65.0,30.17,East,96,14.9,16.7,72,0.00,,,0.92,TxWx,2013-01-11 21:33:00,
2013-01-11 16:35:00,75.8,66.0,30.17,East,96,16.1,16.1,73,0.00,,,0.92,TxWx,2013-01-11 21:35:00,
2013-01-11 16:36:00,76.0,67.0,30.17,East,96,14.2,14.2,74,0.00,,,0.92,TxWx,2013-01-11 21:36:00,
2013-01-11 16:39:00,75.5,66.0,30.17,ESE,118,12.4,12.4,73,0.00,,,0.92,TxWx,2013-01-11 21:39:00,
2013-01-11 16:41:00,75.8,67.0,30.17,ESE,118,13.0,13.0,74,0.00,,,0.92,TxWx,2013-01-11 21:41:00,
2013-01-11 16:42:00,75.7,67.0,30.17,East,96,15.5,16.7,74,0.00,,,0.92,TxWx,2013-01-11 21:42:00,
2013-01-11 16:44:00,75.4,66.0,30.17,ESE,118,12.4,14.9,73,0.00,,,0.92,TxWx,2013-01-11 21:44:00,
2013-01-11 16:47:00,75.3,65.0,30.17,ESE,118,13.6,13.6,72,0.00,,,0.92,TxWx,2013-01-11 21:47:00,
2013-01-11 16:49:00,75.6,66.0,30.17,East,96,13.0,13.0,72,0.00,,,0.92,TxWx,2013-01-11 21:49:00,
2013-01-11 16:52:00,75.6,66.0,30.17,ESE,118,15.5,15.5,73,0.00,,,0.92,TxWx,2013-01-11 21:52:00,
2013-01-11 16:53:00,75.3,66.0,30.17,East,96,15.5,16.1,73,0.00,,,0.92,TxWx,2013-01-11 21:53:00,
2013-01-11 16:54:00,75.6,66.0,30.17,East,96,14.9,15.5,73,0.00,,,0.92,TxWx,2013-01-11 21:54:00,
2013-01-11 16:57:00,75.3,66.0,30.17,ESE,118,14.9,16.1,73,0.00,,,0.92,TxWx,2013-01-11 21:57:00,
2013-01-11 16:58:00,75.7,66.0,30.17,East,96,11.8,11.8,73,0.00,,,0.92,TxWx,2013-01-11 21:58:00,
2013-01-11 16:59:00,75.6,67.0,30.17,East,96,13.0,15.5,73,0.00,,,0.92,TxWx,2013-01-11 21:59:00,
2013-01-11 17:00:00,75.5,67.0,30.17,East,96,12.4,12.4,73,0.00,,,0.92,TxWx,2013-01-11 22:00:00,
2013-01-11 17:03:00,75.3,66.0,30.17,ESE,118,14.2,14.9,74,0.00,,,0.92,TxWx,2013-01-11 22:03:00,
2013-01-11 17:05:00,75.4,66.0,30.17,East,96,12.4,12.4,75,0.00,,,0.92,TxWx,2013-01-11 22:05:00,
2013-01-11 17:06:00,75.2,66.0,30.17,ESE,118,14.9,16.1,74,0.00,,,0.92,TxWx,2013-01-11 22:06:00,
2013-01-11 17:07:00,75.3,66.0,30.17,ESE,118,14.9,16.1,74,0.00,,,0.92,TxWx,2013-01-11 22:07:00,
2013-01-11 17:08:00,75.0,66.0,30.17,ESE,118,13.6,15.5,73,0.00,,,0.92,TxWx,2013-01-11 22:08:00,
2013-01-11 17:10:00,75.3,66.0,30.17,East,96,10.5,11.8,73,0.00,,,0.92,TxWx,2013-01-11 22:10:00,
2013-01-11 17:11:00,75.1,66.0,30.17,East,96,14.2,14.2,73,0.00,,,0.92,TxWx,2013-01-11 22:11:00,
2013-01-11 17:13:00,75.3,66.0,30.17,ESE,118,15.5,15.5,73,0.00,,,0.92,TxWx,2013-01-11 22:13:00,
2013-01-11 17:15:00,75.4,66.0,30.17,East,96,14.2,14.9,74,0.00,,,0.92,TxWx,2013-01-11 22:15:00,
2013-01-11 17:16:00,75.4,66.0,30.17,East,96,12.4,14.2,74,0.00,,,0.92,TxWx,2013-01-11 22:16:00,
2013-01-11 17:17:00,75.1,66.0,30.17,ESE,118,13.6,13.6,74,0.00,,,0.92,TxWx,2013-01-11 22:17:00,
2013-01-11 17:21:00,74.9,66.0,30.17,East,96,13.0,13.0,74,0.00,,,0.92,TxWx,2013-01-11 22:21:00,
2013-01-11 17:22:00,75.2,66.0,30.17,ESE,118,11.8,11.8,74,0.00,,,0.92,TxWx,2013-01-11 22:22:00,
2013-01-11 17:23:00,75.4,66.0,30.17,ESE,118,13.0,13.6,74,0.00,,,0.92,TxWx,2013-01-11 22:23:00,
2013-01-11 17:27:00,75.3,65.0,30.17,East,96,10.5,12.4,72,0.00,,,0.92,TxWx,2013-01-11 22:27:00,
2013-01-11 17:28:00,75.2,65.0,30.17,ESE,118,14.9,15.5,72,0.00,,,0.92,TxWx,2013-01-11 22:28:00,
2013-01-11 17:29:00,75.3,65.0,30.17,East,96,16.1,16.1,72,0.00,,,0.92,TxWx,2013-01-11 22:29:00,
2013-01-11 17:31:00,75.4,65.0,30.17,East,96,13.6,14.9,72,0.00,,,0.92,TxWx,2013-01-11 22:31:00,
2013-01-11 17:32:00,75.4,65.0,30.17,East,96,11.1,13.0,72,0.00,,,0.92,TxWx,2013-01-11 22:32:00,
2013-01-11 17:33:00,75.5,66.0,30.17,East,96,11.1,11.1,72,0.00,,,0.92,TxWx,2013-01-11 22:33:00,
2013-01-11 17:34:00,75.6,66.0,30.17,East,96,13.6,13.6,73,0.00,,,0.92,TxWx,2013-01-11 22:34:00,
2013-01-11 17:36:00,75.8,67.0,30.17,ESE,118,10.5,10.5,73,0.00,,,0.92,TxWx,2013-01-11 22:36:00,
2013-01-11 17:37:00,75.2,66.0,30.17,ESE,118,13.6,13.6,73,0.00,,,0.92,TxWx,2013-01-11 22:37:00,
2013-01-11 17:40:00,75.1,65.0,30.17,East,96,10.5,10.5,72,0.00,,,0.92,TxWx,2013-01-11 22:40:00,
2013-01-11 17:42:00,75.2,65.0,30.17,East,96,13.6,13.6,71,0.00,,,0.92,TxWx,2013-01-11 22:42:00,
2013-01-11 17:43:00,75.6,66.0,30.17,East,96,9.9,9.9,71,0.00,,,0.92,TxWx,2013-01-11 22:43:00,
2013-01-11 17:44:00,75.5,66.0,30.17,ESE,118,13.0,13.0,72,0.00,,,0.92,TxWx,2013-01-11 22:44:00,
2013-01-11 17:45:00,75.4,65.0,30.17,East,96,11.8,13.0,71,0.00,,,0.92,TxWx,2013-01-11 22:45:00,
2013-01-11 17:49:00,75.4,65.0,30.17,ESE,118,13.0,13.0,71,0.00,,,0.92,TxWx,2013-01-11 22:49:00,
2013-01-11 17:50:00,75.5,66.0,30.17,SE,141,11.1,13.6,72,0.00,,,0.92,TxWx,2013-01-11 22:50:00,
2013-01-11 17:55:00,75.1,65.0,30.17,East,96,16.7,16.7,71,0.00,,,0.92,TxWx,2013-01-11 22:55:00,
2013-01-11 17:56:00,75.6,66.0,30.17,East,96,11.8,11.8,72,0.00,,,0.92,TxWx,2013-01-11 22:56:00,
2013-01-11 17:57:00,75.4,65.0,30.17,East,96,12.4,12.4,71,0.00,,,0.92,TxWx,2013-01-11 22:57:00,
2013-01-11 18:00:00,75.7,67.0,30.17,ESE,118,12.4,13.0,74,0.00,,,0.92,TxWx,2013-01-11 23:00:00,
2013-01-11 18:01:00,75.5,66.0,30.17,SE,141,9.9,9.9,73,0.00,,,0.92,TxWx,2013-01-11 23:01:00,
2013-01-11 18:02:00,75.2,65.0,30.17,ESE,118,13.0,14.2,72,0.00,,,0.92,TxWx,2013-01-11 23:02:00,
2013-01-11 18:06:00,75.5,66.0,30.17,ESE,118,13.0,13.0,72,0.00,,,0.92,TxWx,2013-01-11 23:06:00,
2013-01-11 18:07:00,75.5,65.0,30.17,East,96,13.6,13.6,72,0.00,,,0.92,TxWx,2013-01-11 23:07:00,
2013-01-11 18:08:00,75.4,65.0,30.18,ESE,118,10.5,13.0,72,0.00,,,0.92,TxWx,2013-01-11 23:08:00,
2013-01-11 18:11:00,75.4,65.0,30.17,East,96,12.4,14.9,72,0.00,,,0.92,TxWx,2013-01-11 23:11:00,
2013-01-11 18:12:00,75.3,66.0,30.17,ESE,118,14.2,14.9,73,0.00,,,0.92,TxWx,2013-01-11 23:12:00,
2013-01-11 18:15:00,75.6,66.0,30.17,ESE,118,11.8,12.4,72,0.00,,,0.92,TxWx,2013-01-11 23:15:00,
2013-01-11 18:16:00,75.1,65.0,30.17,East,96,12.4,14.2,72,0.00,,,0.92,TxWx,2013-01-11 23:16:00,
2013-01-11 18:17:00,75.3,65.0,30.17,East,96,12.4,13.6,72,0.00,,,0.92,TxWx,2013-01-11 23:17:00,
2013-01-11 18:22:00,75.4,65.0,30.18,East,96,12.4,12.4,72,0.00,,,0.92,TxWx,2013-01-11 23:22:00,
2013-01-11 18:24:00,75.4,66.0,30.18,ESE,118,12.4,12.4,73,0.00,,,0.92,TxWx,2013-01-11 23:24:00,
2013-01-11 18:27:00,75.5,67.0,30.18,ESE,118,11.8,11.8,73,0.00,,,0.92,TxWx,2013-01-11 23:27:00,
2013-01-11 18:28:00,75.4,66.0,30.18,ESE,118,13.0,14.9,73,0.00,,,0.92,TxWx,2013-01-11 23:28:00,
2013-01-11 18:29:00,75.4,66.0,30.17,ESE,118,12.4,14.2,73,0.00,,,0.92,TxWx,2013-01-11 23:29:00,
2013-01-11 18:32:00,75.3,66.0,30.17,East,96,13.6,14.2,74,0.00,,,0.92,TxWx,2013-01-11 23:32:00,
2013-01-11 18:33:00,75.2,66.0,30.17,East,96,16.1,16.1,73,0.00,,,0.92,TxWx,2013-01-11 23:33:00,
2013-01-11 18:35:00,75.6,67.0,30.17,ESE,118,13.6,14.2,74,0.00,,,0.92,TxWx,2013-01-11 23:35:00,
2013-01-11 18:38:00,75.6,67.0,30.17,East,96,14.9,15.5,75,0.00,,,0.92,TxWx,2013-01-11 23:38:00,
2013-01-11 18:40:00,75.2,66.0,30.17,ESE,118,11.8,13.6,74,0.00,,,0.92,TxWx,2013-01-11 23:40:00,
2013-01-11 18:42:00,75.7,67.0,30.17,East,96,14.2,14.2,75,0.00,,,0.92,TxWx,2013-01-11 23:42:00,
2013-01-11 18:43:00,75.0,66.0,30.17,East,96,14.2,14.2,73,0.00,,,0.92,TxWx,2013-01-11 23:43:00,
2013-01-11 18:44:00,75.0,66.0,30.17,ESE,118,16.1,17.3,73,0.00,,,0.92,TxWx,2013-01-11 23:44:00,
2013-01-11 18:48:00,75.6,67.0,30.17,ESE,118,14.2,14.2,74,0.00,,,0.92,TxWx,2013-01-11 23:48:00,
2013-01-11 18:49:00,75.0,66.0,30.17,East,96,13.6,13.6,74,0.00,,,0.92,TxWx,2013-01-11 23:49:00,
2013-01-11 18:50:00,75.3,66.0,30.17,ESE,118,14.2,14.9,74,0.00,,,0.92,TxWx,2013-01-11 23:50:00,
2013-01-11 18:53:00,75.4,66.0,30.17,ESE,118,15.5,15.5,74,0.00,,,0.92,TxWx,2013-01-11 23:53:00,
2013-01-11 18:54:00,75.3,66.0,30.17,East,96,14.2,16.7,74,0.00,,,0.92,TxWx,2013-01-11 23:54:00,
2013-01-11 18:55:00,75.3,66.0,30.17,East,96,11.1,11.8,74,0.00,,,0.92,TxWx,2013-01-11 23:55:00,
2013-01-11 18:59:00,75.3,66.0,30.17,ESE,118,14.9,16.1,75,0.00,,,0.92,TxWx,2013-01-11 23:59:00,
2013-01-11 19:00:00,75.5,66.0,30.17,ESE,118,12.4,13.0,75,0.00,,,0.92,TxWx,2013-01-12 00:00:00,
2013-01-11 19:01:00,74.9,66.0,30.17,ESE,118,16.7,17.3,74,0.00,,,0.92,TxWx,2013-01-12 00:01:00,
2013-01-11 19:04:00,75.0,66.0,30.18,ESE,118,13.6,14.9,74,0.00,,,0.92,TxWx,2013-01-12 00:04:00,
2013-01-11 19:06:00,75.2,66.0,30.17,ESE,118,14.2,17.3,74,0.00,,,0.92,TxWx,2013-01-12 00:06:00,
2013-01-11 19:10:00,75.4,67.0,30.17,East,96,16.1,16.7,75,0.00,,,0.92,TxWx,2013-01-12 00:10:00,
2013-01-11 19:12:00,75.4,66.0,30.18,ESE,118,14.2,14.2,75,0.00,,,0.92,TxWx,2013-01-12 00:12:00,
2013-01-11 19:15:00,75.2,66.0,30.18,ESE,118,15.5,16.1,75,0.00,,,0.92,TxWx,2013-01-12 00:15:00,
2013-01-11 19:17:00,75.1,66.0,30.18,ESE,118,15.5,16.1,74,0.00,,,0.92,TxWx,2013-01-12 00:17:00,
2013-01-11 19:20:00,75.3,66.0,30.18,ESE,118,16.1,16.1,74,0.00,,,0.92,TxWx,2013-01-12 00:20:00,
2013-01-11 19:22:00,75.3,66.0,30.18,East,96,13.6,14.9,74,0.00,,,0.92,TxWx,2013-01-12 00:22:00,
2013-01-11 19:23:00,75.5,67.0,30.18,East,96,14.9,14.9,75,0.00,,,0.92,TxWx,2013-01-12 00:23:00,
2013-01-11 19:26:00,75.2,66.0,30.18,ESE,118,16.7,18.6,75,0.00,,,0.92,TxWx,2013-01-12 00:26:00,
2013-01-11 19:28:00,75.1,66.0,30.18,East,96,14.9,14.9,74,0.00,,,0.92,TxWx,2013-01-12 00:28:00,
2013-01-11 19:29:00,75.3,66.0,30.18,East,96,14.2,14.2,74,0.00,,,0.92,TxWx,2013-01-12 00:29:00,
2013-01-11 19:33:00,75.1,66.0,30.18,ESE,118,13.6,14.9,74,0.00,,,0.92,TxWx,2013-01-12 00:33:00,
2013-01-11 19:34:00,75.1,66.0,30.18,East,96,16.1,17.3,74,0.00,,,0.92,TxWx,2013-01-12 00:34:00,
2013-01-11 19:36:00,75.4,66.0,30.18,East,96,14.9,15.5,74,0.00,,,0.92,TxWx,2013-01-12 00:36:00,
2013-01-11 19:38:00,75.4,66.0,30.18,East,96,16.1,16.1,75,0.00,,,0.92,TxWx,2013-01-12 00:38:00,
2013-01-11 19:39:00,75.1,66.0,30.18,ESE,118,16.7,16.7,74,0.00,,,0.92,TxWx,2013-01-12 00:39:00,
2013-01-11 19:42:00,75.1,66.0,30.18,East,96,15.5,15.5,74,0.00,,,0.92,TxWx,2013-01-12 00:42:00,
2013-01-11 19:44:00,75.1,66.0,30.18,East,96,16.7,17.3,74,0.00,,,0.92,TxWx,2013-01-12 00:44:00,
2013-01-11 19:48:00,75.2,66.0,30.18,East,96,14.9,15.5,75,0.00,,,0.92,TxWx,2013-01-12 00:48:00,
2013-01-11 19:49:00,75.1,66.0,30.18,East,96,15.5,16.1,74,0.00,,,0.92,TxWx,2013-01-12 00:49:00,
2013-01-11 19:50:00,75.4,66.0,30.18,ESE,118,12.4,13.6,74,0.00,,,0.92,TxWx,2013-01-12 00:50:00,
2013-01-11 19:51:00,75.2,66.0,30.18,East,96,17.9,18.6,75,0.00,,,0.92,TxWx,2013-01-12 00:51:00,
2013-01-11 19:53:00,75.3,66.0,30.18,East,96,14.2,14.2,75,0.00,,,0.92,TxWx,2013-01-12 00:53:00,
2013-01-11 19:55:00,75.4,67.0,30.18,ESE,118,13.6,13.6,75,0.00,,,0.92,TxWx,2013-01-12 00:55:00,
2013-01-11 19:56:00,75.1,66.0,30.18,ESE,118,16.7,16.7,75,0.00,,,0.92,TxWx,2013-01-12 00:56:00,
2013-01-11 19:57:00,75.4,67.0,30.18,East,96,13.0,14.2,75,0.00,,,0.92,TxWx,2013-01-12 00:57:00,
2013-01-11 19:58:00,75.3,67.0,30.18,ESE,118,13.0,13.0,75,0.00,,,0.92,TxWx,2013-01-12 00:58:00,
2013-01-11 20:01:00,75.2,67.0,30.18,East,96,16.7,16.7,76,0.00,,,0.92,TxWx,2013-01-12 01:01:00,
2013-01-11 20:02:00,75.1,67.0,30.19,ESE,118,15.5,17.3,75,0.00,,,0.92,TxWx,2013-01-12 01:02:00,
2013-01-11 20:06:00,75.1,66.0,30.18,East,96,17.9,19.2,75,0.00,,,0.92,TxWx,2013-01-12 01:06:00,
2013-01-11 20:07:00,75.4,67.0,30.19,East,96,14.9,16.7,75,0.00,,,0.92,TxWx,2013-01-12 01:07:00,
2013-01-11 20:08:00,75.2,67.0,30.19,ESE,118,17.9,17.9,75,0.00,,,0.92,TxWx,2013-01-12 01:08:00,
2013-01-11 20:09:00,75.2,67.0,30.19,ESE,118,16.1,16.1,75,0.00,,,0.92,TxWx,2013-01-12 01:09:00,
2013-01-11 20:12:00,75.3,67.0,30.19,ESE,118,16.1,16.7,75,0.00,,,0.92,TxWx,2013-01-12 01:12:00,
2013-01-11 20:13:00,75.2,67.0,30.19,ESE,118,16.1,16.7,75,0.00,,,0.92,TxWx,2013-01-12 01:13:00,
2013-01-11 20:16:00,75.2,66.0,30.19,East,96,14.2,16.1,75,0.00,,,0.92,TxWx,2013-01-12 01:16:00,
2013-01-11 20:17:00,75.3,67.0,30.19,ENE,73,14.9,14.9,75,0.00,,,0.92,TxWx,2013-01-12 01:17:00,
2013-01-11 20:19:00,75.3,66.0,30.19,East,96,18.6,19.2,75,0.00,,,0.92,TxWx,2013-01-12 01:19:00,
2013-01-11 20:22:00,75.3,66.0,30.19,East,96,13.6,13.6,75,0.00,,,0.92,TxWx,2013-01-12 01:22:00,
2013-01-11 20:23:00,75.5,67.0,30.19,ESE,118,14.9,14.9,75,0.00,,,0.92,TxWx,2013-01-12 01:23:00,
2013-01-11 20:25:00,75.1,67.0,30.19,ESE,118,15.5,15.5,75,0.00,,,0.92,TxWx,2013-01-12 01:25:00,
2013-01-11 20:27:00,75.1,66.0,30.19,ESE,118,19.2,19.2,75,0.00,,,0.92,TxWx,2013-01-12 01:27:00,
2013-01-11 20:28:00,75.2,67.0,30.18,East,96,16.1,19.2,75,0.00,,,0.92,TxWx,2013-01-12 01:28:00,
2013-01-11 20:29:00,75.1,66.0,30.18,East,96,17.9,19.2,75,0.00,,,0.92,TxWx,2013-01-12 01:29:00,
2013-01-11 20:31:00,75.1,66.0,30.18,East,96,17.3,19.8,75,0.00,,,0.92,TxWx,2013-01-12 01:31:00,
2013-01-11 20:33:00,75.4,67.0,30.19,ESE,118,16.7,16.7,75,0.00,,,0.92,TxWx,2013-01-12 01:33:00,
2013-01-11 20:34:00,75.1,67.0,30.18,East,96,14.9,17.3,75,0.00,,,0.92,TxWx,2013-01-12 01:34:00,
2013-01-11 20:36:00,75.3,67.0,30.19,ESE,118,14.2,16.1,75,0.00,,,0.92,TxWx,2013-01-12 01:36:00,
2013-01-11 20:39:00,75.0,66.0,30.19,East,96,16.7,16.7,74,0.00,,,0.92,TxWx,2013-01-12 01:39:00,
2013-01-11 20:40:00,75.0,66.0,30.19,East,96,17.3,18.6,75,0.00,,,0.92,TxWx,2013-01-12 01:40:00,
2013-01-11 20:42:00,75.5,68.0,30.19,East,96,14.2,14.2,76,0.00,,,0.92,TxWx,2013-01-12 01:42:00,
2013-01-11 20:44:00,75.3,67.0,30.18,East,96,17.3,17.3,76,0.00,,,0.92,TxWx,2013-01-12 01:44:00,
2013-01-11 20:47:00,75.4,67.0,30.19,ESE,118,16.1,16.7,75,0.00,,,0.92,TxWx,2013-01-12 01:47:00,
2013-01-11 20:49:00,75.2,67.0,30.19,East,96,17.9,18.6,75,0.00,,,0.92,TxWx,2013-01-12 01:49:00,
2013-01-11 20:50:00,75.2,67.0,30.19,ESE,118,18.6,18.6,75,0.00,,,0.92,TxWx,2013-01-12 01:50:00,
2013-01-11 20:53:00,75.2,66.0,30.19,East,96,17.9,19.2,75,0.00,,,0.92,TxWx,2013-01-12 01:53:00,
2013-01-11 20:54:00,75.0,66.0,30.19,East,96,17.3,17.3,74,0.00,,,0.92,TxWx,2013-01-12 01:54:00,
2013-01-11 20:55:00,75.1,66.0,30.19,East,96,16.1,16.1,74,0.00,,,0.92,TxWx,2013-01-12 01:55:00,
2013-01-11 20:59:00,75.0,66.0,30.19,East,96,17.3,17.3,75,0.00,,,0.92,TxWx,2013-01-12 01:59:00,
2013-01-11 21:01:00,75.3,66.0,30.19,ESE,118,13.0,14.2,75,0.00,,,0.92,TxWx,2013-01-12 02:01:00,
2013-01-11 21:04:00,75.1,66.0,30.19,ESE,118,16.1,16.1,74,0.00,,,0.92,TxWx,2013-01-12 02:04:00,
2013-01-11 21:06:00,75.0,66.0,30.19,East,96,17.3,19.8,75,0.00,,,0.92,TxWx,2013-01-12 02:06:00,
2013-01-11 21:12:00,75.5,67.0,30.19,ENE,73,13.6,14.9,75,0.00,,,0.92,TxWx,2013-01-12 02:12:00,
2013-01-11 21:13:00,75.2,67.0,30.19,ESE,118,17.9,17.9,75,0.00,,,0.92,TxWx,2013-01-12 02:13:00,
2013-01-11 21:17:00,75.2,66.0,30.19,ESE,118,20.4,20.4,74,0.00,,,0.92,TxWx,2013-01-12 02:17:00,
2013-01-11 21:18:00,75.1,66.0,30.19,ESE,118,17.9,20.4,74,0.00,,,0.92,TxWx,2013-01-12 02:18:00,
2013-01-11 21:19:00,75.3,66.0,30.19,ESE,118,14.9,15.5,74,0.00,,,0.92,TxWx,2013-01-12 02:19:00,
2013-01-11 21:21:00,75.5,67.0,30.19,East,96,16.1,16.7,74,0.00,,,0.92,TxWx,2013-01-12 02:21:00,
2013-01-11 21:24:00,75.3,66.0,30.19,East,96,17.9,17.9,74,0.00,,,0.92,TxWx,2013-01-12 02:24:00,
2013-01-11 21:27:00,75.3,66.0,30.19,ESE,118,16.7,17.3,74,0.00,,,0.92,TxWx,2013-01-12 02:27:00,
2013-01-11 21:29:00,75.2,66.0,30.19,East,96,15.5,17.3,74,0.00,,,0.92,TxWx,2013-01-12 02:29:00,
2013-01-11 21:31:00,75.5,66.0,30.19,East,96,21.0,21.0,74,0.00,,,0.92,TxWx,2013-01-12 02:31:00,
2013-01-11 21:33:00,75.6,67.0,30.19,East,96,15.5,15.5,74,0.00,,,0.92,TxWx,2013-01-12 02:33:00,
2013-01-11 21:34:00,75.5,67.0,30.19,East,96,16.1,17.9,74,0.00,,,0.92,TxWx,2013-01-12 02:34:00,
2013-01-11 21:35:00,75.3,66.0,30.19,East,96,17.9,17.9,74,0.00,,,0.92,TxWx,2013-01-12 02:35:00,
2013-01-11 21:37:00,75.3,66.0,30.19,East,96,18.6,20.4,74,0.00,,,0.92,TxWx,2013-01-12 02:37:00,
2013-01-11 21:39:00,75.1,66.0,30.19,East,96,17.9,19.8,74,0.00,,,0.92,TxWx,2013-01-12 02:39:00,
2013-01-11 21:40:00,75.3,66.0,30.19,ESE,118,17.3,18.6,74,0.00,,,0.92,TxWx,2013-01-12 02:40:00,
2013-01-11 21:42:00,75.0,66.0,30.19,East,96,20.4,20.4,74,0.00,,,0.92,TxWx,2013-01-12 02:42:00,
2013-01-11 21:44:00,75.3,66.0,30.19,East,96,14.9,18.6,74,0.00,,,0.92,TxWx,2013-01-12 02:44:00,
2013-01-11 21:45:00,75.3,66.0,30.19,ESE,118,22.3,22.3,74,0.00,,,0.92,TxWx,2013-01-12 02:45:00,
2013-01-11 21:48:00,75.3,66.0,30.19,East,96,19.2,19.2,74,0.00,,,0.92,TxWx,2013-01-12 02:48:00,
2013-01-11 21:51:00,75.3,66.0,30.19,ESE,118,15.5,15.5,74,0.00,,,0.92,TxWx,2013-01-12 02:51:00,
2013-01-11 21:52:00,75.6,67.0,30.19,East,96,20.4,20.4,74,0.00,,,0.92,TxWx,2013-01-12 02:52:00,
2013-01-11 21:54:00,75.1,66.0,30.19,East,96,21.0,21.0,74,0.00,,,0.92,TxWx,2013-01-12 02:54:00,
2013-01-11 21:56:00,75.0,66.0,30.19,East,96,19.2,19.2,73,0.00,,,0.92,TxWx,2013-01-12 02:56:00,
2013-01-11 21:59:00,75.6,67.0,30.18,East,96,18.6,18.6,75,0.00,,,0.92,TxWx,2013-01-12 02:59:00,
2013-01-11 22:00:00,75.7,68.0,30.19,East,96,16.7,16.7,76,0.00,,,0.92,TxWx,2013-01-12 03:00:00,
2013-01-11 22:01:00,75.3,66.0,30.18,East,96,19.2,20.4,74,0.00,,,0.92,TxWx,2013-01-12 03:01:00,
2013-01-11 22:05:00,75.3,66.0,30.18,East,96,17.9,17.9,75,0.00,,,0.92,TxWx,2013-01-12 03:05:00,
2013-01-11 22:06:00,75.1,66.0,30.18,East,96,21.0,21.7,74,0.00,,,0.92,TxWx,2013-01-12 03:06:00,
2013-01-11 22:07:00,75.2,66.0,30.18,ESE,118,22.3,22.3,74,0.00,,,0.92,TxWx,2013-01-12 03:07:00,
2013-01-11 22:10:00,75.1,66.0,30.18,East,96,17.3,20.4,74,0.00,,,0.92,TxWx,2013-01-12 03:10:00,
2013-01-11 22:12:00,75.3,66.0,30.18,East,96,17.9,20.4,74,0.00,,,0.92,TxWx,2013-01-12 03:12:00,
2013-01-11 22:15:00,75.1,66.0,30.18,ESE,118,19.2,19.2,74,0.00,,,0.92,TxWx,2013-01-12 03:15:00,
2013-01-11 22:16:00,75.4,66.0,30.18,ESE,118,18.6,19.8,75,0.00,,,0.92,TxWx,2013-01-12 03:16:00,
2013-01-11 22:18:00,75.1,66.0,30.18,East,96,20.4,20.4,75,0.00,,,0.92,TxWx,2013-01-12 03:18:00,
2013-01-11 22:21:00,74.9,66.0,30.18,East,96,20.4,24.1,74,0.00,,,0.92,TxWx,2013-01-12 03:21:00,
2013-01-11 22:22:00,75.0,66.0,30.18,East,96,21.7,21.7,74,0.00,,,0.92,TxWx,2013-01-12 03:22:00,
2013-01-11 22:23:00,75.1,66.0,30.18,East,96,20.4,21.0,74,0.00,,,0.92,TxWx,2013-01-12 03:23:00,
2013-01-11 22:27:00,75.4,66.0,30.18,East,96,17.9,18.6,74,0.00,,,0.92,TxWx,2013-01-12 03:27:00,
2013-01-11 22:28:00,75.2,66.0,30.18,East,96,16.7,16.7,74,0.00,,,0.92,TxWx,2013-01-12 03:28:00,
2013-01-11 22:31:00,75.0,66.0,30.18,East,96,21.7,21.7,73,0.00,,,0.92,TxWx,2013-01-12 03:31:00,
2013-01-11 22:32:00,75.1,66.0,30.18,East,96,15.5,16.7,73,0.00,,,0.92,TxWx,2013-01-12 03:32:00,
2013-01-11 22:34:00,75.2,66.0,30.18,East,96,16.7,17.3,73,0.00,,,0.92,TxWx,2013-01-12 03:34:00,
2013-01-11 22:35:00,75.1,66.0,30.18,East,96,19.2,19.2,74,0.00,,,0.92,TxWx,2013-01-12 03:35:00,
2013-01-11 22:39:00,75.0,66.0,30.18,East,96,20.4,20.4,73,0.00,,,0.92,TxWx,2013-01-12 03:39:00,
2013-01-11 22:41:00,75.2,66.0,30.18,East,96,21.0,21.0,73,0.00,,,0.92,TxWx,2013-01-12 03:41:00,
2013-01-11 22:44:00,75.2,66.0,30.18,East,96,18.6,18.6,73,0.00,,,0.92,TxWx,2013-01-12 03:44:00,
2013-01-11 22:45:00,74.9,66.0,30.18,ESE,118,17.3,19.8,73,0.00,,,0.92,TxWx,2013-01-12 03:45:00,
2013-01-11 22:47:00,75.3,66.0,30.18,ESE,118,16.1,16.1,74,0.00,,,0.92,TxWx,2013-01-12 03:47:00,
2013-01-11 22:50:00,75.0,66.0,30.18,East,96,19.8,22.3,73,0.00,,,0.92,TxWx,2013-01-12 03:50:00,
2013-01-11 22:51:00,75.1,66.0,30.18,ESE,118,17.9,17.9,74,0.00,,,0.92,TxWx,2013-01-12 03:51:00,
2013-01-11 22:54:00,74.8,66.0,30.18,East,96,18.6,20.4,73,0.00,,,0.92,TxWx,2013-01-12 03:54:00,
2013-01-11 22:56:00,75.1,66.0,30.17,ESE,118,16.7,16.7,74,0.00,,,0.92,TxWx,2013-01-12 03:56:00,
2013-01-11 22:57:00,75.1,66.0,30.17,ESE,118,17.9,17.9,73,0.00,,,0.92,TxWx,2013-01-12 03:57:00,
2013-01-11 23:00:00,75.2,66.0,30.17,East,96,17.3,17.3,73,0.00,,,0.92,TxWx,2013-01-12 04:00:00,
2013-01-11 23:01:00,75.1,66.0,30.18,ESE,118,19.2,19.2,73,0.00,,,0.92,TxWx,2013-01-12 04:01:00,
2013-01-11 23:03:00,75.0,66.0,30.17,ESE,118,19.8,22.3,73,0.00,,,0.92,TxWx,2013-01-12 04:03:00,
2013-01-11 23:06:00,75.2,66.0,30.17,ESE,118,15.5,15.5,73,0.00,,,0.92,TxWx,2013-01-12 04:06:00,
2013-01-11 23:09:00,75.3,66.0,30.17,ESE,118,17.9,17.9,74,0.00,,,0.92,TxWx,2013-01-12 04:09:00,
2013-01-11 23:10:00,75.1,66.0,30.17,ESE,118,17.9,17.9,73,0.00,,,0.92,TxWx,2013-01-12 04:10:00,
2013-01-11 23:12:00,74.9,65.0,30.17,East,96,19.2,19.2,72,0.00,,,0.92,TxWx,2013-01-12 04:12:00,
2013-01-11 23:14:00,75.3,66.0,30.17,ESE,118,16.7,16.7,73,0.00,,,0.92,TxWx,2013-01-12 04:14:00,
2013-01-11 23:17:00,74.8,65.0,30.17,ESE,118,17.9,19.2,72,0.00,,,0.92,TxWx,2013-01-12 04:17:00,
2013-01-11 23:19:00,75.0,65.0,30.17,East,96,17.3,17.3,72,0.00,,,0.92,TxWx,2013-01-12 04:19:00,
2013-01-11 23:20:00,75.0,65.0,30.17,East,96,20.4,21.7,72,0.00,,,0.92,TxWx,2013-01-12 04:20:00,
2013-01-11 23:23:00,75.2,65.0,30.18,East,96,16.1,17.3,72,0.00,,,0.92,TxWx,2013-01-12 04:23:00,
2013-01-11 23:24:00,74.8,65.0,30.17,ESE,118,19.2,19.2,71,0.00,,,0.92,TxWx,2013-01-12 04:24:00,
2013-01-11 23:25:00,75.1,65.0,30.17,ESE,118,14.2,16.7,70,0.00,,,0.92,TxWx,2013-01-12 04:25:00,
2013-01-11 23:26:00,75.1,65.0,30.18,East,96,14.9,17.3,70,0.00,,,0.92,TxWx,2013-01-12 04:26:00,
2013-01-11 23:28:00,75.2,65.0,30.17,ESE,118,19.2,19.2,70,0.00,,,0.92,TxWx,2013-01-12 04:28:00,
2013-01-11 23:31:00,75.2,64.0,30.18,East,96,19.2,19.8,69,0.00,,,0.92,TxWx,2013-01-12 04:31:00,
2013-01-11 23:33:00,75.0,65.0,30.17,SE,141,16.7,16.7,70,0.00,,,0.92,TxWx,2013-01-12 04:33:00,
2013-01-11 23:34:00,75.5,65.0,30.17,East,96,16.1,17.3,71,0.00,,,0.92,TxWx,2013-01-12 04:34:00,
2013-01-11 23:36:00,75.2,65.0,30.17,East,96,17.3,17.9,70,0.00,,,0.92,TxWx,2013-01-12 04:36:00,
2013-01-11 23:37:00,75.0,65.0,30.17,East,96,21.0,21.7,70,0.00,,,0.92,TxWx,2013-01-12 04:37:00,
2013-01-11 23:39:00,75.5,65.0,30.17,ESE,118,18.6,18.6,70,0.00,,,0.92,TxWx,2013-01-12 04:39:00,
2013-01-11 23:42:00,75.3,65.0,30.17,ESE,118,16.7,17.9,70,0.00,,,0.92,TxWx,2013-01-12 04:42:00,
2013-01-11 23:44:00,75.5,65.0,30.17,ESE,118,19.2,19.2,70,0.00,,,0.92,TxWx,2013-01-12 04:44:00,
2013-01-11 23:45:00,75.1,64.0,30.17,ESE,118,17.9,18.6,69,0.00,,,0.92,TxWx,2013-01-12 04:45:00,
2013-01-11 23:46:00,75.3,64.0,30.17,East,96,20.4,21.0,70,0.00,,,0.92,TxWx,2013-01-12 04:46:00,
2013-01-11 23:47:00,75.3,65.0,30.17,ESE,118,17.9,17.9,70,0.00,,,0.92,TxWx,2013-01-12 04:47:00,
2013-01-11 23:50:00,75.0,64.0,30.17,ESE,118,21.7,22.3,70,0.00,,,0.92,TxWx,2013-01-12 04:50:00,
2013-01-11 23:51:00,75.3,64.0,30.17,East,96,17.3,17.3,70,0.00,,,0.92,TxWx,2013-01-12 04:51:00,
2013-01-11 23:53:00,75.3,64.0,30.17,East,96,13.6,15.5,69,0.00,,,0.92,TxWx,2013-01-12 04:53:00,
2013-01-11 23:56:00,75.3,64.0,30.17,ESE,118,20.4,20.4,70,0.00,,,0.92,TxWx,2013-01-12 04:56:00,
2013-01-11 23:57:00,75.2,64.0,30.17,ESE,118,17.9,17.9,69,0.00,,,0.92,TxWx,2013-01-12 04:57:00,
2013-01-11 23:59:00,75.0,64.0,30.17,ESE,118,17.9,20.4,69,0.00,,,0.92,TxWx,2013-01-12 04:59:00,